<?xml version="1.0" encoding="UTF-8" standalone="no" ?>
<gpx xmlns="http://www.topografix.com/GPX/1/1" xmlns:xsi="http://www.w3.org/2001/XMLSchema-instance" xsi:schemaLocation="http://www.topografix.com/GPX/1/1 http://www.topografix.com/GPX/1/1/gpx.xsd" version="1.1" creator="VisuGPX - https://www.visugpx.com">
  <metadata>
    <name>Géocaching autour du golf de Seraincourt</name>
    <desc><![CDATA[

http://coord.info/GC6FCYE]]></desc>
  </metadata>
  <trk>
    <name><![CDATA[Tracé actuel: 01 MAI 2016 11:51]]></name>
    <trkseg>
      <trkpt lat="49.02305" lon="1.8741">
        <ele>21.29</ele>
        <time>2016-05-01T09:51:22Z</time>
      </trkpt>
      <trkpt lat="49.02304" lon="1.8741">
        <ele>17.44</ele>
        <time>2016-05-01T09:51:39Z</time>
      </trkpt>
      <trkpt lat="49.02298" lon="1.87409">
        <ele>21.77</ele>
        <time>2016-05-01T09:51:51Z</time>
      </trkpt>
      <trkpt lat="49.02292" lon="1.87409">
        <ele>23.21</ele>
        <time>2016-05-01T09:52:07Z</time>
      </trkpt>
      <trkpt lat="49.02286" lon="1.87411">
        <ele>37.15</ele>
        <time>2016-05-01T09:52:26Z</time>
      </trkpt>
      <trkpt lat="49.02276" lon="1.87408">
        <ele>37.15</ele>
        <time>2016-05-01T09:52:39Z</time>
      </trkpt>
      <trkpt lat="49.0227" lon="1.87406">
        <ele>39.07</ele>
        <time>2016-05-01T09:52:51Z</time>
      </trkpt>
      <trkpt lat="49.02269" lon="1.87403">
        <ele>42.92</ele>
        <time>2016-05-01T09:53:14Z</time>
      </trkpt>
      <trkpt lat="49.02268" lon="1.87399">
        <ele>43.88</ele>
        <time>2016-05-01T09:53:35Z</time>
      </trkpt>
      <trkpt lat="49.02267" lon="1.87399">
        <ele>44.36</ele>
        <time>2016-05-01T09:53:36Z</time>
      </trkpt>
      <trkpt lat="49.02264" lon="1.87395">
        <ele>43.88</ele>
        <time>2016-05-01T09:53:48Z</time>
      </trkpt>
      <trkpt lat="49.0226" lon="1.87389">
        <ele>40.51</ele>
        <time>2016-05-01T09:54:01Z</time>
      </trkpt>
      <trkpt lat="49.02257" lon="1.87385">
        <ele>40.03</ele>
        <time>2016-05-01T09:54:13Z</time>
      </trkpt>
      <trkpt lat="49.02256" lon="1.87379">
        <ele>39.55</ele>
        <time>2016-05-01T09:54:33Z</time>
      </trkpt>
      <trkpt lat="49.0225" lon="1.87368">
        <ele>40.99</ele>
        <time>2016-05-01T09:54:46Z</time>
      </trkpt>
      <trkpt lat="49.02245" lon="1.87361">
        <ele>43.4</ele>
        <time>2016-05-01T09:54:59Z</time>
      </trkpt>
      <trkpt lat="49.02243" lon="1.87346">
        <ele>42.44</ele>
        <time>2016-05-01T09:55:14Z</time>
      </trkpt>
      <trkpt lat="49.02236" lon="1.87328">
        <ele>43.4</ele>
        <time>2016-05-01T09:55:28Z</time>
      </trkpt>
      <trkpt lat="49.02227" lon="1.8731">
        <ele>46.76</ele>
        <time>2016-05-01T09:55:43Z</time>
      </trkpt>
      <trkpt lat="49.02224" lon="1.87302">
        <ele>51.57</ele>
        <time>2016-05-01T09:55:56Z</time>
      </trkpt>
      <trkpt lat="49.02221" lon="1.87296">
        <ele>53.97</ele>
        <time>2016-05-01T09:56:13Z</time>
      </trkpt>
      <trkpt lat="49.02223" lon="1.87289">
        <ele>51.57</ele>
        <time>2016-05-01T09:56:25Z</time>
      </trkpt>
      <trkpt lat="49.0222" lon="1.87279">
        <ele>50.13</ele>
        <time>2016-05-01T09:56:39Z</time>
      </trkpt>
      <trkpt lat="49.0222" lon="1.8727">
        <ele>49.65</ele>
        <time>2016-05-01T09:56:51Z</time>
      </trkpt>
      <trkpt lat="49.02207" lon="1.87268">
        <ele>50.61</ele>
        <time>2016-05-01T09:57:06Z</time>
      </trkpt>
      <trkpt lat="49.02205" lon="1.87267">
        <ele>49.16</ele>
        <time>2016-05-01T09:57:19Z</time>
      </trkpt>
      <trkpt lat="49.02206" lon="1.87266">
        <ele>48.68</ele>
        <time>2016-05-01T09:57:34Z</time>
      </trkpt>
      <trkpt lat="49.0219" lon="1.87261">
        <ele>50.61</ele>
        <time>2016-05-01T09:57:51Z</time>
      </trkpt>
      <trkpt lat="49.02176" lon="1.8726">
        <ele>53.49</ele>
        <time>2016-05-01T09:58:07Z</time>
      </trkpt>
      <trkpt lat="49.02168" lon="1.87273">
        <ele>54.45</ele>
        <time>2016-05-01T09:58:21Z</time>
      </trkpt>
      <trkpt lat="49.02165" lon="1.87279">
        <ele>54.45</ele>
        <time>2016-05-01T09:58:36Z</time>
      </trkpt>
      <trkpt lat="49.02164" lon="1.87279">
        <ele>54.45</ele>
        <time>2016-05-01T09:58:48Z</time>
      </trkpt>
      <trkpt lat="49.02164" lon="1.87278">
        <ele>54.93</ele>
        <time>2016-05-01T09:58:55Z</time>
      </trkpt>
      <trkpt lat="49.0217" lon="1.87264">
        <ele>53.01</ele>
        <time>2016-05-01T09:59:07Z</time>
      </trkpt>
      <trkpt lat="49.02164" lon="1.87259">
        <ele>52.53</ele>
        <time>2016-05-01T09:59:22Z</time>
      </trkpt>
      <trkpt lat="49.02164" lon="1.87258">
        <ele>52.05</ele>
        <time>2016-05-01T09:59:36Z</time>
      </trkpt>
      <trkpt lat="49.02164" lon="1.87257">
        <ele>52.53</ele>
        <time>2016-05-01T09:59:57Z</time>
      </trkpt>
      <trkpt lat="49.02162" lon="1.8726">
        <ele>53.49</ele>
        <time>2016-05-01T10:00:07Z</time>
      </trkpt>
      <trkpt lat="49.02163" lon="1.87258">
        <ele>53.97</ele>
        <time>2016-05-01T10:00:21Z</time>
      </trkpt>
      <trkpt lat="49.02163" lon="1.8726">
        <ele>53.97</ele>
        <time>2016-05-01T10:00:36Z</time>
      </trkpt>
      <trkpt lat="49.02161" lon="1.8726">
        <ele>53.97</ele>
        <time>2016-05-01T10:00:47Z</time>
      </trkpt>
      <trkpt lat="49.0216" lon="1.87259">
        <ele>53.97</ele>
        <time>2016-05-01T10:01:05Z</time>
      </trkpt>
      <trkpt lat="49.0216" lon="1.87259">
        <ele>54.93</ele>
        <time>2016-05-01T10:01:26Z</time>
      </trkpt>
      <trkpt lat="49.0216" lon="1.8726">
        <ele>55.41</ele>
        <time>2016-05-01T10:01:45Z</time>
      </trkpt>
      <trkpt lat="49.0216" lon="1.8726">
        <ele>55.41</ele>
        <time>2016-05-01T10:02:05Z</time>
      </trkpt>
      <trkpt lat="49.02161" lon="1.87259">
        <ele>54.93</ele>
        <time>2016-05-01T10:02:16Z</time>
      </trkpt>
      <trkpt lat="49.02162" lon="1.8726">
        <ele>53.97</ele>
        <time>2016-05-01T10:02:28Z</time>
      </trkpt>
      <trkpt lat="49.02164" lon="1.87262">
        <ele>53.97</ele>
        <time>2016-05-01T10:02:44Z</time>
      </trkpt>
      <trkpt lat="49.02164" lon="1.87264">
        <ele>53.97</ele>
        <time>2016-05-01T10:03:20Z</time>
      </trkpt>
      <trkpt lat="49.02165" lon="1.87262">
        <ele>53.97</ele>
        <time>2016-05-01T10:03:35Z</time>
      </trkpt>
      <trkpt lat="49.02168" lon="1.87261">
        <ele>53.01</ele>
        <time>2016-05-01T10:03:47Z</time>
      </trkpt>
      <trkpt lat="49.02166" lon="1.87258">
        <ele>53.01</ele>
        <time>2016-05-01T10:04:02Z</time>
      </trkpt>
      <trkpt lat="49.02164" lon="1.87256">
        <ele>53.49</ele>
        <time>2016-05-01T10:04:22Z</time>
      </trkpt>
      <trkpt lat="49.02163" lon="1.87258">
        <ele>54.45</ele>
        <time>2016-05-01T10:04:32Z</time>
      </trkpt>
      <trkpt lat="49.02163" lon="1.87258">
        <ele>54.45</ele>
        <time>2016-05-01T10:04:49Z</time>
      </trkpt>
      <trkpt lat="49.02163" lon="1.87257">
        <ele>55.41</ele>
        <time>2016-05-01T10:05:09Z</time>
      </trkpt>
      <trkpt lat="49.02162" lon="1.87257">
        <ele>55.41</ele>
        <time>2016-05-01T10:05:24Z</time>
      </trkpt>
      <trkpt lat="49.02161" lon="1.8726">
        <ele>56.86</ele>
        <time>2016-05-01T10:05:43Z</time>
      </trkpt>
      <trkpt lat="49.02161" lon="1.8726">
        <ele>56.37</ele>
        <time>2016-05-01T10:05:59Z</time>
      </trkpt>
      <trkpt lat="49.0216" lon="1.87261">
        <ele>55.89</ele>
        <time>2016-05-01T10:06:17Z</time>
      </trkpt>
      <trkpt lat="49.0216" lon="1.87261">
        <ele>55.89</ele>
        <time>2016-05-01T10:06:38Z</time>
      </trkpt>
      <trkpt lat="49.0216" lon="1.87262">
        <ele>55.41</ele>
        <time>2016-05-01T10:07:02Z</time>
      </trkpt>
      <trkpt lat="49.0216" lon="1.87263">
        <ele>55.41</ele>
        <time>2016-05-01T10:07:21Z</time>
      </trkpt>
      <trkpt lat="49.02161" lon="1.87261">
        <ele>54.93</ele>
        <time>2016-05-01T10:07:35Z</time>
      </trkpt>
      <trkpt lat="49.02161" lon="1.87261">
        <ele>54.45</ele>
        <time>2016-05-01T10:07:53Z</time>
      </trkpt>
      <trkpt lat="49.02162" lon="1.8726">
        <ele>54.45</ele>
        <time>2016-05-01T10:08:05Z</time>
      </trkpt>
      <trkpt lat="49.02163" lon="1.8726">
        <ele>54.45</ele>
        <time>2016-05-01T10:08:21Z</time>
      </trkpt>
      <trkpt lat="49.02163" lon="1.87261">
        <ele>54.45</ele>
        <time>2016-05-01T10:08:35Z</time>
      </trkpt>
      <trkpt lat="49.02163" lon="1.87261">
        <ele>54.45</ele>
        <time>2016-05-01T10:08:48Z</time>
      </trkpt>
      <trkpt lat="49.02164" lon="1.87263">
        <ele>54.93</ele>
        <time>2016-05-01T10:09:14Z</time>
      </trkpt>
      <trkpt lat="49.02163" lon="1.87264">
        <ele>55.89</ele>
        <time>2016-05-01T10:09:50Z</time>
      </trkpt>
      <trkpt lat="49.02164" lon="1.87263">
        <ele>55.89</ele>
        <time>2016-05-01T10:10:13Z</time>
      </trkpt>
      <trkpt lat="49.02168" lon="1.87263">
        <ele>54.93</ele>
        <time>2016-05-01T10:10:27Z</time>
      </trkpt>
      <trkpt lat="49.02169" lon="1.87269">
        <ele>54.93</ele>
        <time>2016-05-01T10:10:40Z</time>
      </trkpt>
      <trkpt lat="49.02169" lon="1.87273">
        <ele>54.93</ele>
        <time>2016-05-01T10:10:56Z</time>
      </trkpt>
      <trkpt lat="49.02165" lon="1.87283">
        <ele>53.97</ele>
        <time>2016-05-01T10:11:10Z</time>
      </trkpt>
      <trkpt lat="49.02159" lon="1.87293">
        <ele>55.41</ele>
        <time>2016-05-01T10:11:22Z</time>
      </trkpt>
      <trkpt lat="49.02155" lon="1.87302">
        <ele>55.89</ele>
        <time>2016-05-01T10:11:36Z</time>
      </trkpt>
      <trkpt lat="49.02151" lon="1.87313">
        <ele>54.93</ele>
        <time>2016-05-01T10:11:53Z</time>
      </trkpt>
      <trkpt lat="49.02144" lon="1.87327">
        <ele>54.45</ele>
        <time>2016-05-01T10:12:08Z</time>
      </trkpt>
      <trkpt lat="49.02141" lon="1.87335">
        <ele>53.97</ele>
        <time>2016-05-01T10:12:23Z</time>
      </trkpt>
      <trkpt lat="49.02134" lon="1.87344">
        <ele>53.01</ele>
        <time>2016-05-01T10:12:39Z</time>
      </trkpt>
      <trkpt lat="49.02122" lon="1.87361">
        <ele>51.09</ele>
        <time>2016-05-01T10:12:58Z</time>
      </trkpt>
      <trkpt lat="49.02121" lon="1.87362">
        <ele>50.61</ele>
        <time>2016-05-01T10:13:00Z</time>
      </trkpt>
      <trkpt lat="49.02111" lon="1.87374">
        <ele>49.16</ele>
        <time>2016-05-01T10:13:17Z</time>
      </trkpt>
      <trkpt lat="49.02103" lon="1.87387">
        <ele>47.24</ele>
        <time>2016-05-01T10:13:32Z</time>
      </trkpt>
      <trkpt lat="49.02091" lon="1.87401">
        <ele>46.28</ele>
        <time>2016-05-01T10:13:46Z</time>
      </trkpt>
      <trkpt lat="49.02082" lon="1.87418">
        <ele>46.76</ele>
        <time>2016-05-01T10:14:01Z</time>
      </trkpt>
      <trkpt lat="49.02068" lon="1.87434">
        <ele>45.8</ele>
        <time>2016-05-01T10:14:17Z</time>
      </trkpt>
      <trkpt lat="49.02058" lon="1.87452">
        <ele>45.8</ele>
        <time>2016-05-01T10:14:34Z</time>
      </trkpt>
      <trkpt lat="49.0205" lon="1.87469">
        <ele>47.72</ele>
        <time>2016-05-01T10:14:49Z</time>
      </trkpt>
      <trkpt lat="49.02049" lon="1.87475">
        <ele>48.2</ele>
        <time>2016-05-01T10:14:53Z</time>
      </trkpt>
      <trkpt lat="49.02039" lon="1.87494">
        <ele>48.2</ele>
        <time>2016-05-01T10:15:08Z</time>
      </trkpt>
      <trkpt lat="49.02033" lon="1.8751">
        <ele>50.61</ele>
        <time>2016-05-01T10:15:21Z</time>
      </trkpt>
      <trkpt lat="49.02035" lon="1.8751">
        <ele>49.16</ele>
        <time>2016-05-01T10:15:37Z</time>
      </trkpt>
      <trkpt lat="49.02036" lon="1.87509">
        <ele>47.72</ele>
        <time>2016-05-01T10:15:52Z</time>
      </trkpt>
      <trkpt lat="49.02036" lon="1.87511">
        <ele>47.24</ele>
        <time>2016-05-01T10:16:05Z</time>
      </trkpt>
      <trkpt lat="49.02036" lon="1.87513">
        <ele>47.72</ele>
        <time>2016-05-01T10:16:24Z</time>
      </trkpt>
      <trkpt lat="49.02034" lon="1.87515">
        <ele>47.24</ele>
        <time>2016-05-01T10:16:38Z</time>
      </trkpt>
      <trkpt lat="49.02034" lon="1.87515">
        <ele>46.76</ele>
        <time>2016-05-01T10:16:58Z</time>
      </trkpt>
      <trkpt lat="49.02034" lon="1.87514">
        <ele>47.24</ele>
        <time>2016-05-01T10:17:19Z</time>
      </trkpt>
      <trkpt lat="49.02034" lon="1.87511">
        <ele>47.24</ele>
        <time>2016-05-01T10:17:45Z</time>
      </trkpt>
      <trkpt lat="49.02035" lon="1.87507">
        <ele>48.2</ele>
        <time>2016-05-01T10:18:20Z</time>
      </trkpt>
      <trkpt lat="49.02035" lon="1.87504">
        <ele>48.2</ele>
        <time>2016-05-01T10:18:54Z</time>
      </trkpt>
      <trkpt lat="49.02033" lon="1.87504">
        <ele>47.72</ele>
        <time>2016-05-01T10:19:17Z</time>
      </trkpt>
      <trkpt lat="49.02033" lon="1.87504">
        <ele>47.72</ele>
        <time>2016-05-01T10:19:31Z</time>
      </trkpt>
      <trkpt lat="49.02033" lon="1.87504">
        <ele>47.72</ele>
        <time>2016-05-01T10:19:47Z</time>
      </trkpt>
      <trkpt lat="49.02034" lon="1.87504">
        <ele>48.2</ele>
        <time>2016-05-01T10:20:06Z</time>
      </trkpt>
      <trkpt lat="49.02037" lon="1.87508">
        <ele>46.76</ele>
        <time>2016-05-01T10:20:32Z</time>
      </trkpt>
      <trkpt lat="49.02038" lon="1.87509">
        <ele>46.76</ele>
        <time>2016-05-01T10:20:33Z</time>
      </trkpt>
      <trkpt lat="49.02047" lon="1.87529">
        <ele>44.84</ele>
        <time>2016-05-01T10:20:49Z</time>
      </trkpt>
      <trkpt lat="49.02053" lon="1.87549">
        <ele>43.88</ele>
        <time>2016-05-01T10:21:03Z</time>
      </trkpt>
      <trkpt lat="49.02056" lon="1.87569">
        <ele>41.95</ele>
        <time>2016-05-01T10:21:20Z</time>
      </trkpt>
      <trkpt lat="49.02059" lon="1.8758">
        <ele>41.95</ele>
        <time>2016-05-01T10:21:35Z</time>
      </trkpt>
      <trkpt lat="49.02058" lon="1.87593">
        <ele>45.8</ele>
        <time>2016-05-01T10:21:51Z</time>
      </trkpt>
      <trkpt lat="49.02054" lon="1.8761">
        <ele>46.76</ele>
        <time>2016-05-01T10:22:05Z</time>
      </trkpt>
      <trkpt lat="49.02051" lon="1.87625">
        <ele>48.2</ele>
        <time>2016-05-01T10:22:19Z</time>
      </trkpt>
      <trkpt lat="49.02044" lon="1.87637">
        <ele>50.13</ele>
        <time>2016-05-01T10:22:32Z</time>
      </trkpt>
      <trkpt lat="49.02034" lon="1.87649">
        <ele>53.49</ele>
        <time>2016-05-01T10:22:47Z</time>
      </trkpt>
      <trkpt lat="49.02026" lon="1.87654">
        <ele>54.93</ele>
        <time>2016-05-01T10:23:01Z</time>
      </trkpt>
      <trkpt lat="49.02025" lon="1.87655">
        <ele>55.41</ele>
        <time>2016-05-01T10:23:02Z</time>
      </trkpt>
      <trkpt lat="49.02013" lon="1.87662">
        <ele>59.26</ele>
        <time>2016-05-01T10:23:14Z</time>
      </trkpt>
      <trkpt lat="49.02001" lon="1.87673">
        <ele>59.26</ele>
        <time>2016-05-01T10:23:32Z</time>
      </trkpt>
      <trkpt lat="49.01995" lon="1.87685">
        <ele>62.14</ele>
        <time>2016-05-01T10:23:47Z</time>
      </trkpt>
      <trkpt lat="49.01985" lon="1.87702">
        <ele>62.62</ele>
        <time>2016-05-01T10:24:02Z</time>
      </trkpt>
      <trkpt lat="49.01982" lon="1.87709">
        <ele>63.1</ele>
        <time>2016-05-01T10:24:17Z</time>
      </trkpt>
      <trkpt lat="49.01972" lon="1.87724">
        <ele>63.1</ele>
        <time>2016-05-01T10:24:31Z</time>
      </trkpt>
      <trkpt lat="49.01972" lon="1.87725">
        <ele>62.62</ele>
        <time>2016-05-01T10:24:46Z</time>
      </trkpt>
      <trkpt lat="49.01969" lon="1.87732">
        <ele>64.07</ele>
        <time>2016-05-01T10:25:02Z</time>
      </trkpt>
      <trkpt lat="49.01964" lon="1.87742">
        <ele>65.03</ele>
        <time>2016-05-01T10:25:11Z</time>
      </trkpt>
      <trkpt lat="49.01953" lon="1.87758">
        <ele>65.99</ele>
        <time>2016-05-01T10:25:26Z</time>
      </trkpt>
      <trkpt lat="49.0195" lon="1.87759">
        <ele>67.43</ele>
        <time>2016-05-01T10:25:38Z</time>
      </trkpt>
      <trkpt lat="49.01944" lon="1.87758">
        <ele>68.39</ele>
        <time>2016-05-01T10:25:53Z</time>
      </trkpt>
      <trkpt lat="49.01941" lon="1.87756">
        <ele>68.87</ele>
        <time>2016-05-01T10:26:10Z</time>
      </trkpt>
      <trkpt lat="49.01941" lon="1.87756">
        <ele>68.87</ele>
        <time>2016-05-01T10:26:30Z</time>
      </trkpt>
      <trkpt lat="49.01941" lon="1.87755">
        <ele>68.39</ele>
        <time>2016-05-01T10:26:44Z</time>
      </trkpt>
      <trkpt lat="49.01941" lon="1.87753">
        <ele>68.87</ele>
        <time>2016-05-01T10:27:05Z</time>
      </trkpt>
      <trkpt lat="49.01941" lon="1.87753">
        <ele>68.87</ele>
        <time>2016-05-01T10:27:23Z</time>
      </trkpt>
      <trkpt lat="49.01944" lon="1.87755">
        <ele>68.87</ele>
        <time>2016-05-01T10:27:40Z</time>
      </trkpt>
      <trkpt lat="49.01947" lon="1.87754">
        <ele>67.91</ele>
        <time>2016-05-01T10:27:53Z</time>
      </trkpt>
      <trkpt lat="49.01947" lon="1.87754">
        <ele>68.39</ele>
        <time>2016-05-01T10:28:07Z</time>
      </trkpt>
      <trkpt lat="49.01947" lon="1.87754">
        <ele>68.39</ele>
        <time>2016-05-01T10:28:13Z</time>
      </trkpt>
      <trkpt lat="49.01946" lon="1.87752">
        <ele>67.91</ele>
        <time>2016-05-01T10:28:26Z</time>
      </trkpt>
      <trkpt lat="49.01946" lon="1.87751">
        <ele>67.91</ele>
        <time>2016-05-01T10:28:44Z</time>
      </trkpt>
      <trkpt lat="49.01946" lon="1.87751">
        <ele>67.91</ele>
        <time>2016-05-01T10:29:02Z</time>
      </trkpt>
      <trkpt lat="49.01945" lon="1.87751">
        <ele>67.91</ele>
        <time>2016-05-01T10:29:28Z</time>
      </trkpt>
      <trkpt lat="49.01944" lon="1.8775">
        <ele>67.91</ele>
        <time>2016-05-01T10:30:01Z</time>
      </trkpt>
      <trkpt lat="49.01944" lon="1.8775">
        <ele>68.39</ele>
        <time>2016-05-01T10:30:36Z</time>
      </trkpt>
      <trkpt lat="49.01944" lon="1.8775">
        <ele>68.39</ele>
        <time>2016-05-01T10:31:12Z</time>
      </trkpt>
      <trkpt lat="49.01943" lon="1.8775">
        <ele>67.91</ele>
        <time>2016-05-01T10:31:49Z</time>
      </trkpt>
      <trkpt lat="49.01943" lon="1.87748">
        <ele>68.39</ele>
        <time>2016-05-01T10:32:22Z</time>
      </trkpt>
      <trkpt lat="49.01943" lon="1.8775">
        <ele>68.39</ele>
        <time>2016-05-01T10:32:57Z</time>
      </trkpt>
      <trkpt lat="49.01942" lon="1.87755">
        <ele>68.39</ele>
        <time>2016-05-01T10:33:07Z</time>
      </trkpt>
      <trkpt lat="49.01942" lon="1.87757">
        <ele>67.91</ele>
        <time>2016-05-01T10:33:24Z</time>
      </trkpt>
      <trkpt lat="49.01941" lon="1.87755">
        <ele>65.99</ele>
        <time>2016-05-01T10:33:48Z</time>
      </trkpt>
      <trkpt lat="49.0194" lon="1.87757">
        <ele>67.91</ele>
        <time>2016-05-01T10:34:09Z</time>
      </trkpt>
      <trkpt lat="49.01938" lon="1.87759">
        <ele>69.35</ele>
        <time>2016-05-01T10:34:35Z</time>
      </trkpt>
      <trkpt lat="49.01934" lon="1.87757">
        <ele>69.35</ele>
        <time>2016-05-01T10:34:53Z</time>
      </trkpt>
      <trkpt lat="49.01926" lon="1.87749">
        <ele>69.35</ele>
        <time>2016-05-01T10:35:08Z</time>
      </trkpt>
      <trkpt lat="49.01916" lon="1.8774">
        <ele>70.79</ele>
        <time>2016-05-01T10:35:23Z</time>
      </trkpt>
      <trkpt lat="49.01913" lon="1.87733">
        <ele>70.31</ele>
        <time>2016-05-01T10:35:36Z</time>
      </trkpt>
      <trkpt lat="49.01906" lon="1.87727">
        <ele>69.35</ele>
        <time>2016-05-01T10:35:54Z</time>
      </trkpt>
      <trkpt lat="49.01899" lon="1.8772">
        <ele>69.83</ele>
        <time>2016-05-01T10:36:11Z</time>
      </trkpt>
      <trkpt lat="49.01896" lon="1.87719">
        <ele>69.35</ele>
        <time>2016-05-01T10:36:23Z</time>
      </trkpt>
      <trkpt lat="49.01897" lon="1.87718">
        <ele>69.35</ele>
        <time>2016-05-01T10:36:51Z</time>
      </trkpt>
      <trkpt lat="49.01898" lon="1.87717">
        <ele>69.83</ele>
        <time>2016-05-01T10:37:10Z</time>
      </trkpt>
      <trkpt lat="49.01899" lon="1.87719">
        <ele>69.83</ele>
        <time>2016-05-01T10:37:29Z</time>
      </trkpt>
      <trkpt lat="49.01893" lon="1.87717">
        <ele>70.31</ele>
        <time>2016-05-01T10:37:50Z</time>
      </trkpt>
      <trkpt lat="49.01886" lon="1.87711">
        <ele>70.31</ele>
        <time>2016-05-01T10:37:59Z</time>
      </trkpt>
      <trkpt lat="49.01877" lon="1.87703">
        <ele>70.79</ele>
        <time>2016-05-01T10:38:11Z</time>
      </trkpt>
      <trkpt lat="49.01868" lon="1.87695">
        <ele>72.72</ele>
        <time>2016-05-01T10:38:23Z</time>
      </trkpt>
      <trkpt lat="49.01864" lon="1.87691">
        <ele>72.24</ele>
        <time>2016-05-01T10:38:28Z</time>
      </trkpt>
      <trkpt lat="49.01865" lon="1.87685">
        <ele>72.72</ele>
        <time>2016-05-01T10:38:39Z</time>
      </trkpt>
      <trkpt lat="49.01862" lon="1.87683">
        <ele>73.2</ele>
        <time>2016-05-01T10:38:54Z</time>
      </trkpt>
      <trkpt lat="49.01861" lon="1.87682">
        <ele>74.16</ele>
        <time>2016-05-01T10:39:11Z</time>
      </trkpt>
      <trkpt lat="49.01848" lon="1.87675">
        <ele>75.12</ele>
        <time>2016-05-01T10:39:23Z</time>
      </trkpt>
      <trkpt lat="49.01841" lon="1.87668">
        <ele>77.04</ele>
        <time>2016-05-01T10:39:35Z</time>
      </trkpt>
      <trkpt lat="49.01833" lon="1.87661">
        <ele>78</ele>
        <time>2016-05-01T10:39:47Z</time>
      </trkpt>
      <trkpt lat="49.01823" lon="1.87648">
        <ele>79.45</ele>
        <time>2016-05-01T10:40:00Z</time>
      </trkpt>
      <trkpt lat="49.01824" lon="1.87646">
        <ele>78.97</ele>
        <time>2016-05-01T10:40:13Z</time>
      </trkpt>
      <trkpt lat="49.01807" lon="1.8763">
        <ele>78.48</ele>
        <time>2016-05-01T10:40:31Z</time>
      </trkpt>
      <trkpt lat="49.01793" lon="1.87618">
        <ele>77.52</ele>
        <time>2016-05-01T10:40:46Z</time>
      </trkpt>
      <trkpt lat="49.01781" lon="1.87606">
        <ele>78.48</ele>
        <time>2016-05-01T10:41:01Z</time>
      </trkpt>
      <trkpt lat="49.01767" lon="1.87593">
        <ele>80.41</ele>
        <time>2016-05-01T10:41:18Z</time>
      </trkpt>
      <trkpt lat="49.01762" lon="1.87588">
        <ele>81.37</ele>
        <time>2016-05-01T10:41:24Z</time>
      </trkpt>
      <trkpt lat="49.01751" lon="1.87577">
        <ele>83.29</ele>
        <time>2016-05-01T10:41:38Z</time>
      </trkpt>
      <trkpt lat="49.01747" lon="1.87575">
        <ele>83.29</ele>
        <time>2016-05-01T10:41:43Z</time>
      </trkpt>
      <trkpt lat="49.01739" lon="1.87566">
        <ele>81.85</ele>
        <time>2016-05-01T10:41:56Z</time>
      </trkpt>
      <trkpt lat="49.01738" lon="1.87564">
        <ele>81.85</ele>
        <time>2016-05-01T10:41:59Z</time>
      </trkpt>
      <trkpt lat="49.01733" lon="1.87561">
        <ele>82.33</ele>
        <time>2016-05-01T10:42:11Z</time>
      </trkpt>
      <trkpt lat="49.01726" lon="1.87557">
        <ele>83.77</ele>
        <time>2016-05-01T10:42:23Z</time>
      </trkpt>
      <trkpt lat="49.01716" lon="1.87556">
        <ele>91.94</ele>
        <time>2016-05-01T10:42:38Z</time>
      </trkpt>
      <trkpt lat="49.01713" lon="1.87554">
        <ele>93.39</ele>
        <time>2016-05-01T10:42:51Z</time>
      </trkpt>
      <trkpt lat="49.0171" lon="1.87556">
        <ele>92.9</ele>
        <time>2016-05-01T10:43:03Z</time>
      </trkpt>
      <trkpt lat="49.01709" lon="1.87555">
        <ele>93.87</ele>
        <time>2016-05-01T10:43:20Z</time>
      </trkpt>
      <trkpt lat="49.01709" lon="1.87556">
        <ele>92.9</ele>
        <time>2016-05-01T10:43:47Z</time>
      </trkpt>
      <trkpt lat="49.01708" lon="1.87556">
        <ele>92.9</ele>
        <time>2016-05-01T10:44:07Z</time>
      </trkpt>
      <trkpt lat="49.01708" lon="1.87556">
        <ele>93.39</ele>
        <time>2016-05-01T10:44:22Z</time>
      </trkpt>
      <trkpt lat="49.01708" lon="1.87556">
        <ele>93.87</ele>
        <time>2016-05-01T10:44:42Z</time>
      </trkpt>
      <trkpt lat="49.01711" lon="1.87552">
        <ele>93.87</ele>
        <time>2016-05-01T10:44:54Z</time>
      </trkpt>
      <trkpt lat="49.01712" lon="1.8755">
        <ele>94.35</ele>
        <time>2016-05-01T10:45:15Z</time>
      </trkpt>
      <trkpt lat="49.01711" lon="1.87549">
        <ele>92.9</ele>
        <time>2016-05-01T10:45:33Z</time>
      </trkpt>
      <trkpt lat="49.01712" lon="1.87549">
        <ele>91.94</ele>
        <time>2016-05-01T10:45:45Z</time>
      </trkpt>
      <trkpt lat="49.01712" lon="1.87549">
        <ele>91.94</ele>
        <time>2016-05-01T10:46:07Z</time>
      </trkpt>
      <trkpt lat="49.01712" lon="1.87551">
        <ele>91.94</ele>
        <time>2016-05-01T10:46:26Z</time>
      </trkpt>
      <trkpt lat="49.01712" lon="1.87551">
        <ele>91.46</ele>
        <time>2016-05-01T10:46:44Z</time>
      </trkpt>
      <trkpt lat="49.01709" lon="1.87553">
        <ele>91.46</ele>
        <time>2016-05-01T10:46:58Z</time>
      </trkpt>
      <trkpt lat="49.01707" lon="1.87554">
        <ele>90.02</ele>
        <time>2016-05-01T10:47:09Z</time>
      </trkpt>
      <trkpt lat="49.01707" lon="1.87554">
        <ele>89.54</ele>
        <time>2016-05-01T10:47:27Z</time>
      </trkpt>
      <trkpt lat="49.01708" lon="1.87555">
        <ele>88.58</ele>
        <time>2016-05-01T10:47:51Z</time>
      </trkpt>
      <trkpt lat="49.01709" lon="1.87556">
        <ele>88.1</ele>
        <time>2016-05-01T10:48:12Z</time>
      </trkpt>
      <trkpt lat="49.01709" lon="1.87556">
        <ele>88.58</ele>
        <time>2016-05-01T10:48:34Z</time>
      </trkpt>
      <trkpt lat="49.01709" lon="1.87556">
        <ele>88.58</ele>
        <time>2016-05-01T10:48:50Z</time>
      </trkpt>
      <trkpt lat="49.0171" lon="1.87556">
        <ele>88.1</ele>
        <time>2016-05-01T10:49:07Z</time>
      </trkpt>
      <trkpt lat="49.01711" lon="1.87555">
        <ele>88.1</ele>
        <time>2016-05-01T10:49:26Z</time>
      </trkpt>
      <trkpt lat="49.01711" lon="1.87553">
        <ele>87.62</ele>
        <time>2016-05-01T10:49:46Z</time>
      </trkpt>
      <trkpt lat="49.01712" lon="1.87553">
        <ele>88.1</ele>
        <time>2016-05-01T10:50:07Z</time>
      </trkpt>
      <trkpt lat="49.01712" lon="1.87553">
        <ele>88.58</ele>
        <time>2016-05-01T10:50:24Z</time>
      </trkpt>
      <trkpt lat="49.01713" lon="1.87549">
        <ele>89.06</ele>
        <time>2016-05-01T10:50:38Z</time>
      </trkpt>
      <trkpt lat="49.01713" lon="1.87546">
        <ele>89.06</ele>
        <time>2016-05-01T10:51:02Z</time>
      </trkpt>
      <trkpt lat="49.01712" lon="1.87548">
        <ele>89.06</ele>
        <time>2016-05-01T10:51:19Z</time>
      </trkpt>
      <trkpt lat="49.01713" lon="1.87549">
        <ele>89.06</ele>
        <time>2016-05-01T10:51:38Z</time>
      </trkpt>
      <trkpt lat="49.01713" lon="1.87549">
        <ele>88.58</ele>
        <time>2016-05-01T10:51:54Z</time>
      </trkpt>
      <trkpt lat="49.01712" lon="1.87551">
        <ele>89.06</ele>
        <time>2016-05-01T10:52:12Z</time>
      </trkpt>
      <trkpt lat="49.01711" lon="1.87552">
        <ele>89.54</ele>
        <time>2016-05-01T10:52:29Z</time>
      </trkpt>
      <trkpt lat="49.01709" lon="1.87553">
        <ele>89.54</ele>
        <time>2016-05-01T10:52:50Z</time>
      </trkpt>
      <trkpt lat="49.01708" lon="1.87555">
        <ele>89.06</ele>
        <time>2016-05-01T10:53:08Z</time>
      </trkpt>
      <trkpt lat="49.01707" lon="1.87557">
        <ele>89.06</ele>
        <time>2016-05-01T10:53:40Z</time>
      </trkpt>
      <trkpt lat="49.01707" lon="1.87558">
        <ele>89.06</ele>
        <time>2016-05-01T10:53:44Z</time>
      </trkpt>
      <trkpt lat="49.01715" lon="1.87553">
        <ele>90.02</ele>
        <time>2016-05-01T10:53:58Z</time>
      </trkpt>
      <trkpt lat="49.01712" lon="1.87553">
        <ele>90.98</ele>
        <time>2016-05-01T10:54:11Z</time>
      </trkpt>
      <trkpt lat="49.01711" lon="1.87552">
        <ele>90.98</ele>
        <time>2016-05-01T10:54:26Z</time>
      </trkpt>
      <trkpt lat="49.01711" lon="1.87551">
        <ele>90.98</ele>
        <time>2016-05-01T10:54:44Z</time>
      </trkpt>
      <trkpt lat="49.01711" lon="1.87553">
        <ele>90.5</ele>
        <time>2016-05-01T10:55:05Z</time>
      </trkpt>
      <trkpt lat="49.01711" lon="1.87554">
        <ele>90.98</ele>
        <time>2016-05-01T10:55:22Z</time>
      </trkpt>
      <trkpt lat="49.01712" lon="1.87551">
        <ele>90.02</ele>
        <time>2016-05-01T10:55:50Z</time>
      </trkpt>
      <trkpt lat="49.01712" lon="1.87551">
        <ele>90.02</ele>
        <time>2016-05-01T10:56:04Z</time>
      </trkpt>
      <trkpt lat="49.01712" lon="1.87552">
        <ele>90.02</ele>
        <time>2016-05-01T10:56:17Z</time>
      </trkpt>
      <trkpt lat="49.01712" lon="1.87553">
        <ele>90.02</ele>
        <time>2016-05-01T10:56:22Z</time>
      </trkpt>
      <trkpt lat="49.01712" lon="1.8755">
        <ele>89.54</ele>
        <time>2016-05-01T10:56:34Z</time>
      </trkpt>
      <trkpt lat="49.01713" lon="1.87547">
        <ele>89.06</ele>
        <time>2016-05-01T10:56:53Z</time>
      </trkpt>
      <trkpt lat="49.01712" lon="1.87549">
        <ele>89.06</ele>
        <time>2016-05-01T10:57:06Z</time>
      </trkpt>
      <trkpt lat="49.01711" lon="1.87554">
        <ele>89.54</ele>
        <time>2016-05-01T10:57:19Z</time>
      </trkpt>
      <trkpt lat="49.0171" lon="1.87554">
        <ele>89.54</ele>
        <time>2016-05-01T10:57:35Z</time>
      </trkpt>
      <trkpt lat="49.01709" lon="1.87554">
        <ele>89.54</ele>
        <time>2016-05-01T10:57:52Z</time>
      </trkpt>
      <trkpt lat="49.0171" lon="1.87555">
        <ele>90.5</ele>
        <time>2016-05-01T10:58:08Z</time>
      </trkpt>
      <trkpt lat="49.0171" lon="1.87555">
        <ele>90.5</ele>
        <time>2016-05-01T10:58:25Z</time>
      </trkpt>
      <trkpt lat="49.0171" lon="1.87556">
        <ele>91.46</ele>
        <time>2016-05-01T10:58:42Z</time>
      </trkpt>
      <trkpt lat="49.0171" lon="1.87555">
        <ele>91.46</ele>
        <time>2016-05-01T10:58:57Z</time>
      </trkpt>
      <trkpt lat="49.01711" lon="1.87556">
        <ele>91.46</ele>
        <time>2016-05-01T10:59:16Z</time>
      </trkpt>
      <trkpt lat="49.01709" lon="1.87556">
        <ele>90.98</ele>
        <time>2016-05-01T10:59:37Z</time>
      </trkpt>
      <trkpt lat="49.01709" lon="1.87557">
        <ele>90.98</ele>
        <time>2016-05-01T10:59:56Z</time>
      </trkpt>
      <trkpt lat="49.01709" lon="1.87558">
        <ele>90.98</ele>
        <time>2016-05-01T11:00:20Z</time>
      </trkpt>
      <trkpt lat="49.01709" lon="1.87558">
        <ele>90.98</ele>
        <time>2016-05-01T11:00:48Z</time>
      </trkpt>
      <trkpt lat="49.01711" lon="1.87556">
        <ele>91.46</ele>
        <time>2016-05-01T11:01:10Z</time>
      </trkpt>
      <trkpt lat="49.01711" lon="1.87555">
        <ele>91.46</ele>
        <time>2016-05-01T11:01:31Z</time>
      </trkpt>
      <trkpt lat="49.01711" lon="1.87553">
        <ele>91.46</ele>
        <time>2016-05-01T11:01:52Z</time>
      </trkpt>
      <trkpt lat="49.01711" lon="1.87553">
        <ele>90.5</ele>
        <time>2016-05-01T11:02:35Z</time>
      </trkpt>
      <trkpt lat="49.01711" lon="1.87552">
        <ele>90.5</ele>
        <time>2016-05-01T11:02:57Z</time>
      </trkpt>
      <trkpt lat="49.01712" lon="1.87552">
        <ele>90.5</ele>
        <time>2016-05-01T11:03:13Z</time>
      </trkpt>
      <trkpt lat="49.01712" lon="1.87551">
        <ele>90.5</ele>
        <time>2016-05-01T11:03:31Z</time>
      </trkpt>
      <trkpt lat="49.01711" lon="1.87553">
        <ele>90.5</ele>
        <time>2016-05-01T11:03:48Z</time>
      </trkpt>
      <trkpt lat="49.0171" lon="1.87554">
        <ele>90.5</ele>
        <time>2016-05-01T11:04:09Z</time>
      </trkpt>
      <trkpt lat="49.01711" lon="1.87553">
        <ele>90.02</ele>
        <time>2016-05-01T11:04:30Z</time>
      </trkpt>
      <trkpt lat="49.01711" lon="1.87554">
        <ele>90.5</ele>
        <time>2016-05-01T11:04:48Z</time>
      </trkpt>
      <trkpt lat="49.01711" lon="1.87553">
        <ele>90.98</ele>
        <time>2016-05-01T11:05:08Z</time>
      </trkpt>
      <trkpt lat="49.01713" lon="1.87555">
        <ele>91.94</ele>
        <time>2016-05-01T11:05:23Z</time>
      </trkpt>
      <trkpt lat="49.01714" lon="1.87554">
        <ele>91.94</ele>
        <time>2016-05-01T11:05:43Z</time>
      </trkpt>
      <trkpt lat="49.01715" lon="1.87554">
        <ele>91.94</ele>
        <time>2016-05-01T11:06:04Z</time>
      </trkpt>
      <trkpt lat="49.01713" lon="1.87552">
        <ele>91.94</ele>
        <time>2016-05-01T11:06:23Z</time>
      </trkpt>
      <trkpt lat="49.01712" lon="1.87552">
        <ele>91.46</ele>
        <time>2016-05-01T11:06:43Z</time>
      </trkpt>
      <trkpt lat="49.01712" lon="1.87551">
        <ele>91.46</ele>
        <time>2016-05-01T11:07:07Z</time>
      </trkpt>
      <trkpt lat="49.01712" lon="1.87552">
        <ele>91.46</ele>
        <time>2016-05-01T11:07:22Z</time>
      </trkpt>
      <trkpt lat="49.01712" lon="1.87555">
        <ele>91.46</ele>
        <time>2016-05-01T11:07:38Z</time>
      </trkpt>
      <trkpt lat="49.01712" lon="1.87555">
        <ele>91.46</ele>
        <time>2016-05-01T11:07:56Z</time>
      </trkpt>
      <trkpt lat="49.01711" lon="1.87556">
        <ele>90.98</ele>
        <time>2016-05-01T11:08:14Z</time>
      </trkpt>
      <trkpt lat="49.01708" lon="1.87555">
        <ele>89.54</ele>
        <time>2016-05-01T11:08:30Z</time>
      </trkpt>
      <trkpt lat="49.01708" lon="1.87557">
        <ele>89.54</ele>
        <time>2016-05-01T11:08:45Z</time>
      </trkpt>
      <trkpt lat="49.01708" lon="1.87557">
        <ele>89.06</ele>
        <time>2016-05-01T11:09:02Z</time>
      </trkpt>
      <trkpt lat="49.01708" lon="1.87558">
        <ele>89.54</ele>
        <time>2016-05-01T11:09:25Z</time>
      </trkpt>
      <trkpt lat="49.01708" lon="1.87557">
        <ele>90.02</ele>
        <time>2016-05-01T11:09:40Z</time>
      </trkpt>
      <trkpt lat="49.01709" lon="1.87557">
        <ele>90.02</ele>
        <time>2016-05-01T11:09:57Z</time>
      </trkpt>
      <trkpt lat="49.01706" lon="1.87561">
        <ele>89.54</ele>
        <time>2016-05-01T11:10:09Z</time>
      </trkpt>
      <trkpt lat="49.01701" lon="1.87567">
        <ele>91.94</ele>
        <time>2016-05-01T11:10:21Z</time>
      </trkpt>
      <trkpt lat="49.0169" lon="1.87577">
        <ele>95.79</ele>
        <time>2016-05-01T11:10:36Z</time>
      </trkpt>
      <trkpt lat="49.0168" lon="1.87586">
        <ele>98.19</ele>
        <time>2016-05-01T11:10:49Z</time>
      </trkpt>
      <trkpt lat="49.01676" lon="1.87592">
        <ele>98.19</ele>
        <time>2016-05-01T11:10:56Z</time>
      </trkpt>
      <trkpt lat="49.01671" lon="1.87601">
        <ele>98.19</ele>
        <time>2016-05-01T11:11:09Z</time>
      </trkpt>
      <trkpt lat="49.01664" lon="1.87609">
        <ele>97.23</ele>
        <time>2016-05-01T11:11:21Z</time>
      </trkpt>
      <trkpt lat="49.01659" lon="1.87618">
        <ele>98.67</ele>
        <time>2016-05-01T11:11:33Z</time>
      </trkpt>
      <trkpt lat="49.01651" lon="1.87624">
        <ele>100.6</ele>
        <time>2016-05-01T11:11:46Z</time>
      </trkpt>
      <trkpt lat="49.01639" lon="1.87638">
        <ele>101.08</ele>
        <time>2016-05-01T11:11:59Z</time>
      </trkpt>
      <trkpt lat="49.0163" lon="1.87649">
        <ele>101.56</ele>
        <time>2016-05-01T11:12:14Z</time>
      </trkpt>
      <trkpt lat="49.01616" lon="1.87662">
        <ele>101.08</ele>
        <time>2016-05-01T11:12:31Z</time>
      </trkpt>
      <trkpt lat="49.01605" lon="1.87673">
        <ele>99.63</ele>
        <time>2016-05-01T11:12:46Z</time>
      </trkpt>
      <trkpt lat="49.01597" lon="1.87685">
        <ele>99.63</ele>
        <time>2016-05-01T11:12:58Z</time>
      </trkpt>
      <trkpt lat="49.01588" lon="1.87696">
        <ele>100.11</ele>
        <time>2016-05-01T11:13:11Z</time>
      </trkpt>
      <trkpt lat="49.01579" lon="1.87708">
        <ele>100.6</ele>
        <time>2016-05-01T11:13:23Z</time>
      </trkpt>
      <trkpt lat="49.01569" lon="1.87721">
        <ele>100.11</ele>
        <time>2016-05-01T11:13:35Z</time>
      </trkpt>
      <trkpt lat="49.01557" lon="1.87738">
        <ele>100.6</ele>
        <time>2016-05-01T11:13:51Z</time>
      </trkpt>
      <trkpt lat="49.01549" lon="1.87753">
        <ele>99.15</ele>
        <time>2016-05-01T11:14:08Z</time>
      </trkpt>
      <trkpt lat="49.01542" lon="1.87763">
        <ele>99.15</ele>
        <time>2016-05-01T11:14:22Z</time>
      </trkpt>
      <trkpt lat="49.0153" lon="1.87776">
        <ele>100.6</ele>
        <time>2016-05-01T11:14:37Z</time>
      </trkpt>
      <trkpt lat="49.0152" lon="1.87772">
        <ele>100.11</ele>
        <time>2016-05-01T11:14:47Z</time>
      </trkpt>
      <trkpt lat="49.01514" lon="1.87765">
        <ele>97.71</ele>
        <time>2016-05-01T11:14:55Z</time>
      </trkpt>
      <trkpt lat="49.01512" lon="1.87771">
        <ele>97.23</ele>
        <time>2016-05-01T11:15:05Z</time>
      </trkpt>
      <trkpt lat="49.01512" lon="1.87774">
        <ele>97.71</ele>
        <time>2016-05-01T11:15:17Z</time>
      </trkpt>
      <trkpt lat="49.01513" lon="1.87773">
        <ele>97.23</ele>
        <time>2016-05-01T11:15:38Z</time>
      </trkpt>
      <trkpt lat="49.01514" lon="1.87773">
        <ele>97.71</ele>
        <time>2016-05-01T11:16:02Z</time>
      </trkpt>
      <trkpt lat="49.01515" lon="1.87774">
        <ele>98.67</ele>
        <time>2016-05-01T11:16:29Z</time>
      </trkpt>
      <trkpt lat="49.01516" lon="1.87775">
        <ele>98.67</ele>
        <time>2016-05-01T11:17:04Z</time>
      </trkpt>
      <trkpt lat="49.01516" lon="1.87775">
        <ele>98.67</ele>
        <time>2016-05-01T11:17:17Z</time>
      </trkpt>
      <trkpt lat="49.01516" lon="1.87766">
        <ele>99.63</ele>
        <time>2016-05-01T11:17:27Z</time>
      </trkpt>
      <trkpt lat="49.01514" lon="1.87763">
        <ele>99.63</ele>
        <time>2016-05-01T11:17:45Z</time>
      </trkpt>
      <trkpt lat="49.01514" lon="1.8776">
        <ele>100.11</ele>
        <time>2016-05-01T11:17:54Z</time>
      </trkpt>
      <trkpt lat="49.01512" lon="1.8775">
        <ele>100.6</ele>
        <time>2016-05-01T11:18:00Z</time>
      </trkpt>
      <trkpt lat="49.01512" lon="1.87687">
        <ele>99.15</ele>
        <time>2016-05-01T11:18:37Z</time>
      </trkpt>
      <trkpt lat="49.01514" lon="1.87662">
        <ele>98.67</ele>
        <time>2016-05-01T11:18:53Z</time>
      </trkpt>
      <trkpt lat="49.01514" lon="1.87651">
        <ele>98.19</ele>
        <time>2016-05-01T11:19:00Z</time>
      </trkpt>
      <trkpt lat="49.01514" lon="1.87618">
        <ele>100.11</ele>
        <time>2016-05-01T11:19:17Z</time>
      </trkpt>
      <trkpt lat="49.01514" lon="1.87589">
        <ele>100.11</ele>
        <time>2016-05-01T11:19:32Z</time>
      </trkpt>
      <trkpt lat="49.01515" lon="1.87564">
        <ele>100.6</ele>
        <time>2016-05-01T11:19:47Z</time>
      </trkpt>
      <trkpt lat="49.01514" lon="1.87538">
        <ele>100.6</ele>
        <time>2016-05-01T11:20:02Z</time>
      </trkpt>
      <trkpt lat="49.01513" lon="1.87507">
        <ele>101.08</ele>
        <time>2016-05-01T11:20:20Z</time>
      </trkpt>
      <trkpt lat="49.01512" lon="1.87482">
        <ele>101.08</ele>
        <time>2016-05-01T11:20:35Z</time>
      </trkpt>
      <trkpt lat="49.01506" lon="1.87471">
        <ele>101.08</ele>
        <time>2016-05-01T11:20:44Z</time>
      </trkpt>
      <trkpt lat="49.01501" lon="1.87465">
        <ele>101.56</ele>
        <time>2016-05-01T11:20:50Z</time>
      </trkpt>
      <trkpt lat="49.01489" lon="1.87461">
        <ele>102.52</ele>
        <time>2016-05-01T11:21:05Z</time>
      </trkpt>
      <trkpt lat="49.01481" lon="1.87461">
        <ele>103.48</ele>
        <time>2016-05-01T11:21:16Z</time>
      </trkpt>
      <trkpt lat="49.01471" lon="1.87462">
        <ele>102.52</ele>
        <time>2016-05-01T11:21:28Z</time>
      </trkpt>
      <trkpt lat="49.0146" lon="1.87463">
        <ele>102.52</ele>
        <time>2016-05-01T11:21:38Z</time>
      </trkpt>
      <trkpt lat="49.01442" lon="1.87464">
        <ele>103.96</ele>
        <time>2016-05-01T11:21:53Z</time>
      </trkpt>
      <trkpt lat="49.01425" lon="1.87465">
        <ele>105.88</ele>
        <time>2016-05-01T11:22:08Z</time>
      </trkpt>
      <trkpt lat="49.01409" lon="1.87467">
        <ele>104.92</ele>
        <time>2016-05-01T11:22:21Z</time>
      </trkpt>
      <trkpt lat="49.01405" lon="1.87465">
        <ele>104.92</ele>
        <time>2016-05-01T11:22:25Z</time>
      </trkpt>
      <trkpt lat="49.01403" lon="1.87459">
        <ele>104.92</ele>
        <time>2016-05-01T11:22:30Z</time>
      </trkpt>
      <trkpt lat="49.01408" lon="1.87439">
        <ele>105.88</ele>
        <time>2016-05-01T11:22:45Z</time>
      </trkpt>
      <trkpt lat="49.01408" lon="1.87438">
        <ele>105.4</ele>
        <time>2016-05-01T11:22:46Z</time>
      </trkpt>
      <trkpt lat="49.0141" lon="1.87426">
        <ele>104.92</ele>
        <time>2016-05-01T11:22:54Z</time>
      </trkpt>
      <trkpt lat="49.01418" lon="1.87404">
        <ele>103.96</ele>
        <time>2016-05-01T11:23:09Z</time>
      </trkpt>
      <trkpt lat="49.01425" lon="1.87379">
        <ele>103.96</ele>
        <time>2016-05-01T11:23:25Z</time>
      </trkpt>
      <trkpt lat="49.01435" lon="1.87352">
        <ele>103.96</ele>
        <time>2016-05-01T11:23:42Z</time>
      </trkpt>
      <trkpt lat="49.01441" lon="1.87334">
        <ele>103</ele>
        <time>2016-05-01T11:23:55Z</time>
      </trkpt>
      <trkpt lat="49.01447" lon="1.87315">
        <ele>103.96</ele>
        <time>2016-05-01T11:24:06Z</time>
      </trkpt>
      <trkpt lat="49.01452" lon="1.87301">
        <ele>104.92</ele>
        <time>2016-05-01T11:24:16Z</time>
      </trkpt>
      <trkpt lat="49.01456" lon="1.87286">
        <ele>104.92</ele>
        <time>2016-05-01T11:24:26Z</time>
      </trkpt>
      <trkpt lat="49.01466" lon="1.87256">
        <ele>103.96</ele>
        <time>2016-05-01T11:24:46Z</time>
      </trkpt>
      <trkpt lat="49.01468" lon="1.87254">
        <ele>103.96</ele>
        <time>2016-05-01T11:24:58Z</time>
      </trkpt>
      <trkpt lat="49.01469" lon="1.87253">
        <ele>105.4</ele>
        <time>2016-05-01T11:25:17Z</time>
      </trkpt>
      <trkpt lat="49.01468" lon="1.87255">
        <ele>105.4</ele>
        <time>2016-05-01T11:25:29Z</time>
      </trkpt>
      <trkpt lat="49.01468" lon="1.87255">
        <ele>105.4</ele>
        <time>2016-05-01T11:25:40Z</time>
      </trkpt>
      <trkpt lat="49.01467" lon="1.87258">
        <ele>105.4</ele>
        <time>2016-05-01T11:25:53Z</time>
      </trkpt>
      <trkpt lat="49.01467" lon="1.87259">
        <ele>104.92</ele>
        <time>2016-05-01T11:26:07Z</time>
      </trkpt>
      <trkpt lat="49.01466" lon="1.87258">
        <ele>105.4</ele>
        <time>2016-05-01T11:26:21Z</time>
      </trkpt>
      <trkpt lat="49.01466" lon="1.87258">
        <ele>104.92</ele>
        <time>2016-05-01T11:26:36Z</time>
      </trkpt>
      <trkpt lat="49.01467" lon="1.87257">
        <ele>104.92</ele>
        <time>2016-05-01T11:26:56Z</time>
      </trkpt>
      <trkpt lat="49.01468" lon="1.87257">
        <ele>103.96</ele>
        <time>2016-05-01T11:27:11Z</time>
      </trkpt>
      <trkpt lat="49.01469" lon="1.87249">
        <ele>103.48</ele>
        <time>2016-05-01T11:27:22Z</time>
      </trkpt>
      <trkpt lat="49.0147" lon="1.87248">
        <ele>102.04</ele>
        <time>2016-05-01T11:27:42Z</time>
      </trkpt>
      <trkpt lat="49.0147" lon="1.87246">
        <ele>100.6</ele>
        <time>2016-05-01T11:28:03Z</time>
      </trkpt>
      <trkpt lat="49.0147" lon="1.87245">
        <ele>98.67</ele>
        <time>2016-05-01T11:28:27Z</time>
      </trkpt>
      <trkpt lat="49.0147" lon="1.87244">
        <ele>98.19</ele>
        <time>2016-05-01T11:28:56Z</time>
      </trkpt>
      <trkpt lat="49.01469" lon="1.87245">
        <ele>97.23</ele>
        <time>2016-05-01T11:29:27Z</time>
      </trkpt>
      <trkpt lat="49.0147" lon="1.87244">
        <ele>97.23</ele>
        <time>2016-05-01T11:29:56Z</time>
      </trkpt>
      <trkpt lat="49.01471" lon="1.87244">
        <ele>97.23</ele>
        <time>2016-05-01T11:30:19Z</time>
      </trkpt>
      <trkpt lat="49.0147" lon="1.87245">
        <ele>97.71</ele>
        <time>2016-05-01T11:30:36Z</time>
      </trkpt>
      <trkpt lat="49.01477" lon="1.8723">
        <ele>100.6</ele>
        <time>2016-05-01T11:30:50Z</time>
      </trkpt>
      <trkpt lat="49.01486" lon="1.872">
        <ele>103.96</ele>
        <time>2016-05-01T11:31:08Z</time>
      </trkpt>
      <trkpt lat="49.01491" lon="1.87176">
        <ele>103.96</ele>
        <time>2016-05-01T11:31:24Z</time>
      </trkpt>
      <trkpt lat="49.01491" lon="1.87174">
        <ele>103</ele>
        <time>2016-05-01T11:31:29Z</time>
      </trkpt>
      <trkpt lat="49.01498" lon="1.87155">
        <ele>103.96</ele>
        <time>2016-05-01T11:31:43Z</time>
      </trkpt>
      <trkpt lat="49.01499" lon="1.87153">
        <ele>104.44</ele>
        <time>2016-05-01T11:31:45Z</time>
      </trkpt>
      <trkpt lat="49.01502" lon="1.87148">
        <ele>104.44</ele>
        <time>2016-05-01T11:31:49Z</time>
      </trkpt>
      <trkpt lat="49.01509" lon="1.87127">
        <ele>106.36</ele>
        <time>2016-05-01T11:32:03Z</time>
      </trkpt>
      <trkpt lat="49.01516" lon="1.87101">
        <ele>107.32</ele>
        <time>2016-05-01T11:32:19Z</time>
      </trkpt>
      <trkpt lat="49.01519" lon="1.87074">
        <ele>108.77</ele>
        <time>2016-05-01T11:32:34Z</time>
      </trkpt>
      <trkpt lat="49.01527" lon="1.87031">
        <ele>104.44</ele>
        <time>2016-05-01T11:32:54Z</time>
      </trkpt>
      <trkpt lat="49.01533" lon="1.87003">
        <ele>103</ele>
        <time>2016-05-01T11:33:10Z</time>
      </trkpt>
      <trkpt lat="49.01537" lon="1.86975">
        <ele>98.67</ele>
        <time>2016-05-01T11:33:26Z</time>
      </trkpt>
      <trkpt lat="49.01542" lon="1.8695">
        <ele>96.27</ele>
        <time>2016-05-01T11:33:41Z</time>
      </trkpt>
      <trkpt lat="49.01546" lon="1.86926">
        <ele>95.79</ele>
        <time>2016-05-01T11:33:56Z</time>
      </trkpt>
      <trkpt lat="49.01547" lon="1.86922">
        <ele>95.79</ele>
        <time>2016-05-01T11:33:58Z</time>
      </trkpt>
      <trkpt lat="49.01548" lon="1.86914">
        <ele>94.35</ele>
        <time>2016-05-01T11:34:03Z</time>
      </trkpt>
      <trkpt lat="49.01552" lon="1.86894">
        <ele>93.39</ele>
        <time>2016-05-01T11:34:15Z</time>
      </trkpt>
      <trkpt lat="49.01556" lon="1.86865">
        <ele>92.9</ele>
        <time>2016-05-01T11:34:31Z</time>
      </trkpt>
      <trkpt lat="49.01558" lon="1.86848">
        <ele>93.87</ele>
        <time>2016-05-01T11:34:41Z</time>
      </trkpt>
      <trkpt lat="49.01563" lon="1.86826">
        <ele>96.75</ele>
        <time>2016-05-01T11:34:55Z</time>
      </trkpt>
      <trkpt lat="49.0157" lon="1.86806">
        <ele>98.19</ele>
        <time>2016-05-01T11:35:08Z</time>
      </trkpt>
      <trkpt lat="49.01577" lon="1.86786">
        <ele>98.19</ele>
        <time>2016-05-01T11:35:19Z</time>
      </trkpt>
      <trkpt lat="49.01583" lon="1.86768">
        <ele>98.67</ele>
        <time>2016-05-01T11:35:30Z</time>
      </trkpt>
      <trkpt lat="49.01587" lon="1.8676">
        <ele>99.15</ele>
        <time>2016-05-01T11:35:43Z</time>
      </trkpt>
      <trkpt lat="49.01588" lon="1.86756">
        <ele>100.11</ele>
        <time>2016-05-01T11:35:54Z</time>
      </trkpt>
      <trkpt lat="49.01588" lon="1.86759">
        <ele>100.11</ele>
        <time>2016-05-01T11:36:11Z</time>
      </trkpt>
      <trkpt lat="49.01588" lon="1.86758">
        <ele>100.11</ele>
        <time>2016-05-01T11:36:28Z</time>
      </trkpt>
      <trkpt lat="49.01594" lon="1.86741">
        <ele>100.11</ele>
        <time>2016-05-01T11:36:45Z</time>
      </trkpt>
      <trkpt lat="49.01596" lon="1.86738">
        <ele>100.6</ele>
        <time>2016-05-01T11:37:09Z</time>
      </trkpt>
      <trkpt lat="49.01596" lon="1.86738">
        <ele>100.6</ele>
        <time>2016-05-01T11:37:33Z</time>
      </trkpt>
      <trkpt lat="49.01596" lon="1.8674">
        <ele>100.6</ele>
        <time>2016-05-01T11:37:41Z</time>
      </trkpt>
      <trkpt lat="49.01588" lon="1.86756">
        <ele>101.56</ele>
        <time>2016-05-01T11:38:00Z</time>
      </trkpt>
      <trkpt lat="49.01588" lon="1.86755">
        <ele>102.04</ele>
        <time>2016-05-01T11:38:31Z</time>
      </trkpt>
      <trkpt lat="49.01587" lon="1.86756">
        <ele>103</ele>
        <time>2016-05-01T11:38:55Z</time>
      </trkpt>
      <trkpt lat="49.01588" lon="1.86756">
        <ele>102.52</ele>
        <time>2016-05-01T11:39:20Z</time>
      </trkpt>
      <trkpt lat="49.01589" lon="1.86756">
        <ele>103</ele>
        <time>2016-05-01T11:39:31Z</time>
      </trkpt>
      <trkpt lat="49.01601" lon="1.86735">
        <ele>103.48</ele>
        <time>2016-05-01T11:39:50Z</time>
      </trkpt>
      <trkpt lat="49.01607" lon="1.86726">
        <ele>103.48</ele>
        <time>2016-05-01T11:40:09Z</time>
      </trkpt>
      <trkpt lat="49.01612" lon="1.86718">
        <ele>102.52</ele>
        <time>2016-05-01T11:40:21Z</time>
      </trkpt>
      <trkpt lat="49.01615" lon="1.86712">
        <ele>103.48</ele>
        <time>2016-05-01T11:40:36Z</time>
      </trkpt>
      <trkpt lat="49.0161" lon="1.8672">
        <ele>103.48</ele>
        <time>2016-05-01T11:40:50Z</time>
      </trkpt>
      <trkpt lat="49.01611" lon="1.86719">
        <ele>103.48</ele>
        <time>2016-05-01T11:41:04Z</time>
      </trkpt>
      <trkpt lat="49.01617" lon="1.8671">
        <ele>103</ele>
        <time>2016-05-01T11:41:12Z</time>
      </trkpt>
      <trkpt lat="49.01619" lon="1.8671">
        <ele>103</ele>
        <time>2016-05-01T11:41:15Z</time>
      </trkpt>
      <trkpt lat="49.01626" lon="1.867">
        <ele>102.04</ele>
        <time>2016-05-01T11:41:23Z</time>
      </trkpt>
      <trkpt lat="49.0163" lon="1.86694">
        <ele>102.04</ele>
        <time>2016-05-01T11:41:27Z</time>
      </trkpt>
      <trkpt lat="49.01641" lon="1.86676">
        <ele>100.11</ele>
        <time>2016-05-01T11:41:42Z</time>
      </trkpt>
      <trkpt lat="49.01647" lon="1.86664">
        <ele>100.6</ele>
        <time>2016-05-01T11:41:54Z</time>
      </trkpt>
      <trkpt lat="49.0165" lon="1.8666">
        <ele>100.6</ele>
        <time>2016-05-01T11:41:57Z</time>
      </trkpt>
      <trkpt lat="49.01651" lon="1.86656">
        <ele>101.08</ele>
        <time>2016-05-01T11:42:05Z</time>
      </trkpt>
      <trkpt lat="49.01668" lon="1.86627">
        <ele>100.6</ele>
        <time>2016-05-01T11:42:18Z</time>
      </trkpt>
      <trkpt lat="49.01672" lon="1.86622">
        <ele>99.63</ele>
        <time>2016-05-01T11:42:30Z</time>
      </trkpt>
      <trkpt lat="49.01682" lon="1.86606">
        <ele>101.08</ele>
        <time>2016-05-01T11:42:41Z</time>
      </trkpt>
      <trkpt lat="49.01686" lon="1.86601">
        <ele>100.11</ele>
        <time>2016-05-01T11:42:46Z</time>
      </trkpt>
      <trkpt lat="49.01697" lon="1.86586">
        <ele>97.71</ele>
        <time>2016-05-01T11:42:58Z</time>
      </trkpt>
      <trkpt lat="49.01714" lon="1.86559">
        <ele>98.67</ele>
        <time>2016-05-01T11:43:16Z</time>
      </trkpt>
      <trkpt lat="49.01729" lon="1.86529">
        <ele>98.67</ele>
        <time>2016-05-01T11:43:35Z</time>
      </trkpt>
      <trkpt lat="49.01734" lon="1.86513">
        <ele>95.79</ele>
        <time>2016-05-01T11:43:46Z</time>
      </trkpt>
      <trkpt lat="49.0174" lon="1.8649">
        <ele>92.42</ele>
        <time>2016-05-01T11:43:57Z</time>
      </trkpt>
      <trkpt lat="49.01743" lon="1.86464">
        <ele>90.02</ele>
        <time>2016-05-01T11:44:10Z</time>
      </trkpt>
      <trkpt lat="49.01743" lon="1.86441">
        <ele>89.54</ele>
        <time>2016-05-01T11:44:21Z</time>
      </trkpt>
      <trkpt lat="49.01745" lon="1.86415">
        <ele>89.54</ele>
        <time>2016-05-01T11:44:32Z</time>
      </trkpt>
      <trkpt lat="49.01747" lon="1.86405">
        <ele>88.1</ele>
        <time>2016-05-01T11:44:46Z</time>
      </trkpt>
      <trkpt lat="49.01748" lon="1.86405">
        <ele>87.14</ele>
        <time>2016-05-01T11:44:59Z</time>
      </trkpt>
      <trkpt lat="49.01749" lon="1.86406">
        <ele>87.14</ele>
        <time>2016-05-01T11:45:20Z</time>
      </trkpt>
      <trkpt lat="49.0175" lon="1.86405">
        <ele>87.14</ele>
        <time>2016-05-01T11:45:35Z</time>
      </trkpt>
      <trkpt lat="49.0175" lon="1.86404">
        <ele>87.14</ele>
        <time>2016-05-01T11:45:55Z</time>
      </trkpt>
      <trkpt lat="49.0175" lon="1.86405">
        <ele>87.14</ele>
        <time>2016-05-01T11:46:13Z</time>
      </trkpt>
      <trkpt lat="49.01751" lon="1.86404">
        <ele>87.14</ele>
        <time>2016-05-01T11:46:37Z</time>
      </trkpt>
      <trkpt lat="49.01752" lon="1.86405">
        <ele>87.62</ele>
        <time>2016-05-01T11:46:53Z</time>
      </trkpt>
      <trkpt lat="49.01753" lon="1.86405">
        <ele>87.62</ele>
        <time>2016-05-01T11:47:10Z</time>
      </trkpt>
      <trkpt lat="49.01753" lon="1.86406">
        <ele>88.1</ele>
        <time>2016-05-01T11:47:29Z</time>
      </trkpt>
      <trkpt lat="49.01753" lon="1.86403">
        <ele>88.1</ele>
        <time>2016-05-01T11:47:46Z</time>
      </trkpt>
      <trkpt lat="49.01752" lon="1.86402">
        <ele>87.62</ele>
        <time>2016-05-01T11:48:02Z</time>
      </trkpt>
      <trkpt lat="49.01751" lon="1.86403">
        <ele>87.14</ele>
        <time>2016-05-01T11:48:20Z</time>
      </trkpt>
      <trkpt lat="49.0175" lon="1.86403">
        <ele>87.62</ele>
        <time>2016-05-01T11:48:37Z</time>
      </trkpt>
      <trkpt lat="49.01749" lon="1.86404">
        <ele>87.14</ele>
        <time>2016-05-01T11:49:02Z</time>
      </trkpt>
      <trkpt lat="49.01749" lon="1.86404">
        <ele>86.66</ele>
        <time>2016-05-01T11:49:45Z</time>
      </trkpt>
      <trkpt lat="49.01748" lon="1.86404">
        <ele>87.14</ele>
        <time>2016-05-01T11:50:10Z</time>
      </trkpt>
      <trkpt lat="49.01748" lon="1.86405">
        <ele>86.66</ele>
        <time>2016-05-01T11:50:15Z</time>
      </trkpt>
      <trkpt lat="49.01747" lon="1.86403">
        <ele>87.14</ele>
        <time>2016-05-01T11:50:28Z</time>
      </trkpt>
      <trkpt lat="49.01747" lon="1.86404">
        <ele>86.66</ele>
        <time>2016-05-01T11:50:42Z</time>
      </trkpt>
      <trkpt lat="49.01752" lon="1.86386">
        <ele>86.66</ele>
        <time>2016-05-01T11:50:57Z</time>
      </trkpt>
      <trkpt lat="49.01753" lon="1.86378">
        <ele>86.18</ele>
        <time>2016-05-01T11:51:02Z</time>
      </trkpt>
      <trkpt lat="49.01761" lon="1.8635">
        <ele>84.25</ele>
        <time>2016-05-01T11:51:18Z</time>
      </trkpt>
      <trkpt lat="49.01762" lon="1.8632">
        <ele>82.33</ele>
        <time>2016-05-01T11:51:35Z</time>
      </trkpt>
      <trkpt lat="49.01765" lon="1.86289">
        <ele>78.48</ele>
        <time>2016-05-01T11:51:52Z</time>
      </trkpt>
      <trkpt lat="49.01765" lon="1.86257">
        <ele>74.16</ele>
        <time>2016-05-01T11:52:08Z</time>
      </trkpt>
      <trkpt lat="49.0176" lon="1.86227">
        <ele>69.83</ele>
        <time>2016-05-01T11:52:24Z</time>
      </trkpt>
      <trkpt lat="49.01757" lon="1.86214">
        <ele>68.87</ele>
        <time>2016-05-01T11:52:32Z</time>
      </trkpt>
      <trkpt lat="49.01751" lon="1.86177">
        <ele>70.31</ele>
        <time>2016-05-01T11:52:51Z</time>
      </trkpt>
      <trkpt lat="49.0175" lon="1.86171">
        <ele>70.31</ele>
        <time>2016-05-01T11:53:05Z</time>
      </trkpt>
      <trkpt lat="49.01745" lon="1.86149">
        <ele>70.31</ele>
        <time>2016-05-01T11:53:18Z</time>
      </trkpt>
      <trkpt lat="49.01741" lon="1.8614">
        <ele>70.31</ele>
        <time>2016-05-01T11:53:24Z</time>
      </trkpt>
      <trkpt lat="49.01735" lon="1.86116">
        <ele>70.79</ele>
        <time>2016-05-01T11:53:40Z</time>
      </trkpt>
      <trkpt lat="49.01732" lon="1.86093">
        <ele>70.79</ele>
        <time>2016-05-01T11:53:55Z</time>
      </trkpt>
      <trkpt lat="49.01731" lon="1.86087">
        <ele>71.27</ele>
        <time>2016-05-01T11:53:59Z</time>
      </trkpt>
      <trkpt lat="49.01731" lon="1.8606">
        <ele>72.24</ele>
        <time>2016-05-01T11:54:15Z</time>
      </trkpt>
      <trkpt lat="49.0173" lon="1.86057">
        <ele>72.24</ele>
        <time>2016-05-01T11:54:17Z</time>
      </trkpt>
      <trkpt lat="49.01728" lon="1.86035">
        <ele>72.24</ele>
        <time>2016-05-01T11:54:31Z</time>
      </trkpt>
      <trkpt lat="49.01731" lon="1.86018">
        <ele>71.27</ele>
        <time>2016-05-01T11:54:45Z</time>
      </trkpt>
      <trkpt lat="49.01745" lon="1.86015">
        <ele>69.35</ele>
        <time>2016-05-01T11:54:58Z</time>
      </trkpt>
      <trkpt lat="49.01757" lon="1.86018">
        <ele>67.43</ele>
        <time>2016-05-01T11:55:08Z</time>
      </trkpt>
      <trkpt lat="49.01765" lon="1.8602">
        <ele>65.51</ele>
        <time>2016-05-01T11:55:14Z</time>
      </trkpt>
      <trkpt lat="49.01783" lon="1.86025">
        <ele>63.58</ele>
        <time>2016-05-01T11:55:30Z</time>
      </trkpt>
      <trkpt lat="49.01798" lon="1.86029">
        <ele>61.66</ele>
        <time>2016-05-01T11:55:43Z</time>
      </trkpt>
      <trkpt lat="49.01816" lon="1.86037">
        <ele>61.18</ele>
        <time>2016-05-01T11:55:57Z</time>
      </trkpt>
      <trkpt lat="49.01818" lon="1.86039">
        <ele>61.18</ele>
        <time>2016-05-01T11:56:00Z</time>
      </trkpt>
      <trkpt lat="49.01825" lon="1.86053">
        <ele>58.78</ele>
        <time>2016-05-01T11:56:15Z</time>
      </trkpt>
      <trkpt lat="49.01831" lon="1.86071">
        <ele>56.86</ele>
        <time>2016-05-01T11:56:31Z</time>
      </trkpt>
      <trkpt lat="49.01838" lon="1.86094">
        <ele>53.97</ele>
        <time>2016-05-01T11:56:47Z</time>
      </trkpt>
      <trkpt lat="49.01844" lon="1.86111">
        <ele>51.57</ele>
        <time>2016-05-01T11:57:00Z</time>
      </trkpt>
      <trkpt lat="49.01849" lon="1.86136">
        <ele>50.61</ele>
        <time>2016-05-01T11:57:14Z</time>
      </trkpt>
      <trkpt lat="49.01848" lon="1.86159">
        <ele>51.57</ele>
        <time>2016-05-01T11:57:27Z</time>
      </trkpt>
      <trkpt lat="49.01849" lon="1.86171">
        <ele>50.13</ele>
        <time>2016-05-01T11:57:34Z</time>
      </trkpt>
      <trkpt lat="49.01851" lon="1.86178">
        <ele>50.13</ele>
        <time>2016-05-01T11:57:38Z</time>
      </trkpt>
      <trkpt lat="49.01866" lon="1.86189">
        <ele>54.93</ele>
        <time>2016-05-01T11:57:52Z</time>
      </trkpt>
      <trkpt lat="49.01883" lon="1.8619">
        <ele>57.34</ele>
        <time>2016-05-01T11:58:09Z</time>
      </trkpt>
      <trkpt lat="49.01892" lon="1.86194">
        <ele>56.86</ele>
        <time>2016-05-01T11:58:18Z</time>
      </trkpt>
      <trkpt lat="49.01899" lon="1.86198">
        <ele>56.86</ele>
        <time>2016-05-01T11:58:24Z</time>
      </trkpt>
      <trkpt lat="49.01908" lon="1.86202">
        <ele>58.3</ele>
        <time>2016-05-01T11:58:36Z</time>
      </trkpt>
      <trkpt lat="49.01909" lon="1.86203">
        <ele>57.82</ele>
        <time>2016-05-01T11:58:54Z</time>
      </trkpt>
      <trkpt lat="49.0191" lon="1.862">
        <ele>57.82</ele>
        <time>2016-05-01T11:59:09Z</time>
      </trkpt>
      <trkpt lat="49.01913" lon="1.862">
        <ele>58.3</ele>
        <time>2016-05-01T11:59:34Z</time>
      </trkpt>
      <trkpt lat="49.01913" lon="1.86198">
        <ele>61.66</ele>
        <time>2016-05-01T12:00:04Z</time>
      </trkpt>
      <trkpt lat="49.01914" lon="1.86197">
        <ele>64.55</ele>
        <time>2016-05-01T12:00:33Z</time>
      </trkpt>
      <trkpt lat="49.01914" lon="1.86197">
        <ele>64.55</ele>
        <time>2016-05-01T12:00:38Z</time>
      </trkpt>
      <trkpt lat="49.01914" lon="1.862">
        <ele>64.07</ele>
        <time>2016-05-01T12:00:41Z</time>
      </trkpt>
      <trkpt lat="49.01918" lon="1.86202">
        <ele>62.62</ele>
        <time>2016-05-01T12:00:45Z</time>
      </trkpt>
      <trkpt lat="49.01919" lon="1.86208">
        <ele>61.66</ele>
        <time>2016-05-01T12:01:02Z</time>
      </trkpt>
      <trkpt lat="49.01924" lon="1.86218">
        <ele>61.18</ele>
        <time>2016-05-01T12:01:13Z</time>
      </trkpt>
      <trkpt lat="49.01933" lon="1.86234">
        <ele>59.26</ele>
        <time>2016-05-01T12:01:25Z</time>
      </trkpt>
      <trkpt lat="49.0194" lon="1.86246">
        <ele>58.78</ele>
        <time>2016-05-01T12:01:35Z</time>
      </trkpt>
      <trkpt lat="49.01953" lon="1.8626">
        <ele>59.26</ele>
        <time>2016-05-01T12:01:50Z</time>
      </trkpt>
      <trkpt lat="49.01966" lon="1.86283">
        <ele>61.66</ele>
        <time>2016-05-01T12:02:06Z</time>
      </trkpt>
      <trkpt lat="49.01976" lon="1.86301">
        <ele>66.95</ele>
        <time>2016-05-01T12:02:20Z</time>
      </trkpt>
      <trkpt lat="49.01991" lon="1.86321">
        <ele>67.91</ele>
        <time>2016-05-01T12:02:35Z</time>
      </trkpt>
      <trkpt lat="49.02" lon="1.86337">
        <ele>65.03</ele>
        <time>2016-05-01T12:02:46Z</time>
      </trkpt>
      <trkpt lat="49.02007" lon="1.86353">
        <ele>61.66</ele>
        <time>2016-05-01T12:02:56Z</time>
      </trkpt>
      <trkpt lat="49.02019" lon="1.86373">
        <ele>60.7</ele>
        <time>2016-05-01T12:03:12Z</time>
      </trkpt>
      <trkpt lat="49.02026" lon="1.86387">
        <ele>60.22</ele>
        <time>2016-05-01T12:03:23Z</time>
      </trkpt>
      <trkpt lat="49.02031" lon="1.86395">
        <ele>58.78</ele>
        <time>2016-05-01T12:03:29Z</time>
      </trkpt>
      <trkpt lat="49.02037" lon="1.86403">
        <ele>58.3</ele>
        <time>2016-05-01T12:03:42Z</time>
      </trkpt>
      <trkpt lat="49.02045" lon="1.86419">
        <ele>55.89</ele>
        <time>2016-05-01T12:03:55Z</time>
      </trkpt>
      <trkpt lat="49.02038" lon="1.86427">
        <ele>56.86</ele>
        <time>2016-05-01T12:04:08Z</time>
      </trkpt>
      <trkpt lat="49.02031" lon="1.86432">
        <ele>57.82</ele>
        <time>2016-05-01T12:04:21Z</time>
      </trkpt>
      <trkpt lat="49.02023" lon="1.86436">
        <ele>59.74</ele>
        <time>2016-05-01T12:04:36Z</time>
      </trkpt>
      <trkpt lat="49.02022" lon="1.86436">
        <ele>60.7</ele>
        <time>2016-05-01T12:04:46Z</time>
      </trkpt>
      <trkpt lat="49.02018" lon="1.86429">
        <ele>60.7</ele>
        <time>2016-05-01T12:04:59Z</time>
      </trkpt>
      <trkpt lat="49.02018" lon="1.86425">
        <ele>61.66</ele>
        <time>2016-05-01T12:05:21Z</time>
      </trkpt>
      <trkpt lat="49.02018" lon="1.86423">
        <ele>62.14</ele>
        <time>2016-05-01T12:05:40Z</time>
      </trkpt>
      <trkpt lat="49.02017" lon="1.86423">
        <ele>63.1</ele>
        <time>2016-05-01T12:06:00Z</time>
      </trkpt>
      <trkpt lat="49.02017" lon="1.86423">
        <ele>63.1</ele>
        <time>2016-05-01T12:06:16Z</time>
      </trkpt>
      <trkpt lat="49.02018" lon="1.86425">
        <ele>62.62</ele>
        <time>2016-05-01T12:06:44Z</time>
      </trkpt>
      <trkpt lat="49.02019" lon="1.86429">
        <ele>63.1</ele>
        <time>2016-05-01T12:06:57Z</time>
      </trkpt>
      <trkpt lat="49.02018" lon="1.86431">
        <ele>64.07</ele>
        <time>2016-05-01T12:07:14Z</time>
      </trkpt>
      <trkpt lat="49.02019" lon="1.86431">
        <ele>64.07</ele>
        <time>2016-05-01T12:07:31Z</time>
      </trkpt>
      <trkpt lat="49.0202" lon="1.86431">
        <ele>65.51</ele>
        <time>2016-05-01T12:07:57Z</time>
      </trkpt>
      <trkpt lat="49.02019" lon="1.86431">
        <ele>65.03</ele>
        <time>2016-05-01T12:08:29Z</time>
      </trkpt>
      <trkpt lat="49.0202" lon="1.8643">
        <ele>65.51</ele>
        <time>2016-05-01T12:09:02Z</time>
      </trkpt>
      <trkpt lat="49.02021" lon="1.86432">
        <ele>65.51</ele>
        <time>2016-05-01T12:09:24Z</time>
      </trkpt>
      <trkpt lat="49.02026" lon="1.86433">
        <ele>64.55</ele>
        <time>2016-05-01T12:09:43Z</time>
      </trkpt>
      <trkpt lat="49.02035" lon="1.86434">
        <ele>62.14</ele>
        <time>2016-05-01T12:09:55Z</time>
      </trkpt>
      <trkpt lat="49.02037" lon="1.86432">
        <ele>61.66</ele>
        <time>2016-05-01T12:09:57Z</time>
      </trkpt>
      <trkpt lat="49.02052" lon="1.8645">
        <ele>60.7</ele>
        <time>2016-05-01T12:10:13Z</time>
      </trkpt>
      <trkpt lat="49.02065" lon="1.86469">
        <ele>57.82</ele>
        <time>2016-05-01T12:10:28Z</time>
      </trkpt>
      <trkpt lat="49.0208" lon="1.86487">
        <ele>54.93</ele>
        <time>2016-05-01T12:10:42Z</time>
      </trkpt>
      <trkpt lat="49.02085" lon="1.86492">
        <ele>54.45</ele>
        <time>2016-05-01T12:10:46Z</time>
      </trkpt>
      <trkpt lat="49.021" lon="1.86524">
        <ele>52.05</ele>
        <time>2016-05-01T12:11:03Z</time>
      </trkpt>
      <trkpt lat="49.02107" lon="1.86538">
        <ele>51.09</ele>
        <time>2016-05-01T12:11:12Z</time>
      </trkpt>
      <trkpt lat="49.02112" lon="1.86546">
        <ele>50.61</ele>
        <time>2016-05-01T12:11:17Z</time>
      </trkpt>
      <trkpt lat="49.02116" lon="1.86555">
        <ele>49.65</ele>
        <time>2016-05-01T12:11:22Z</time>
      </trkpt>
      <trkpt lat="49.02131" lon="1.86581">
        <ele>45.8</ele>
        <time>2016-05-01T12:11:37Z</time>
      </trkpt>
      <trkpt lat="49.02141" lon="1.86608">
        <ele>42.92</ele>
        <time>2016-05-01T12:11:51Z</time>
      </trkpt>
      <trkpt lat="49.02149" lon="1.86638">
        <ele>40.03</ele>
        <time>2016-05-01T12:12:07Z</time>
      </trkpt>
      <trkpt lat="49.02156" lon="1.86668">
        <ele>36.67</ele>
        <time>2016-05-01T12:12:25Z</time>
      </trkpt>
      <trkpt lat="49.02161" lon="1.86693">
        <ele>37.15</ele>
        <time>2016-05-01T12:12:41Z</time>
      </trkpt>
      <trkpt lat="49.02171" lon="1.86715">
        <ele>36.67</ele>
        <time>2016-05-01T12:12:55Z</time>
      </trkpt>
      <trkpt lat="49.02177" lon="1.86736">
        <ele>34.26</ele>
        <time>2016-05-01T12:13:09Z</time>
      </trkpt>
      <trkpt lat="49.02187" lon="1.86759">
        <ele>34.74</ele>
        <time>2016-05-01T12:13:26Z</time>
      </trkpt>
      <trkpt lat="49.02194" lon="1.86776">
        <ele>35.23</ele>
        <time>2016-05-01T12:13:37Z</time>
      </trkpt>
      <trkpt lat="49.02202" lon="1.86803">
        <ele>33.78</ele>
        <time>2016-05-01T12:13:50Z</time>
      </trkpt>
      <trkpt lat="49.0221" lon="1.86826">
        <ele>35.23</ele>
        <time>2016-05-01T12:14:02Z</time>
      </trkpt>
      <trkpt lat="49.02222" lon="1.86855">
        <ele>37.15</ele>
        <time>2016-05-01T12:14:18Z</time>
      </trkpt>
      <trkpt lat="49.02226" lon="1.86867">
        <ele>39.07</ele>
        <time>2016-05-01T12:14:24Z</time>
      </trkpt>
      <trkpt lat="49.02225" lon="1.86872">
        <ele>39.55</ele>
        <time>2016-05-01T12:14:28Z</time>
      </trkpt>
      <trkpt lat="49.02216" lon="1.86869">
        <ele>38.59</ele>
        <time>2016-05-01T12:14:40Z</time>
      </trkpt>
      <trkpt lat="49.02215" lon="1.8687">
        <ele>38.59</ele>
        <time>2016-05-01T12:14:41Z</time>
      </trkpt>
      <trkpt lat="49.02207" lon="1.86872">
        <ele>39.07</ele>
        <time>2016-05-01T12:14:54Z</time>
      </trkpt>
      <trkpt lat="49.02208" lon="1.86872">
        <ele>40.99</ele>
        <time>2016-05-01T12:15:14Z</time>
      </trkpt>
      <trkpt lat="49.02208" lon="1.86871">
        <ele>42.44</ele>
        <time>2016-05-01T12:15:32Z</time>
      </trkpt>
      <trkpt lat="49.02208" lon="1.86872">
        <ele>43.88</ele>
        <time>2016-05-01T12:15:56Z</time>
      </trkpt>
      <trkpt lat="49.02208" lon="1.86871">
        <ele>45.8</ele>
        <time>2016-05-01T12:16:26Z</time>
      </trkpt>
      <trkpt lat="49.02208" lon="1.86868">
        <ele>44.84</ele>
        <time>2016-05-01T12:17:01Z</time>
      </trkpt>
      <trkpt lat="49.02209" lon="1.8687">
        <ele>44.36</ele>
        <time>2016-05-01T12:17:29Z</time>
      </trkpt>
      <trkpt lat="49.0221" lon="1.86869">
        <ele>43.4</ele>
        <time>2016-05-01T12:17:31Z</time>
      </trkpt>
      <trkpt lat="49.02217" lon="1.86872">
        <ele>38.59</ele>
        <time>2016-05-01T12:17:42Z</time>
      </trkpt>
      <trkpt lat="49.02217" lon="1.86873">
        <ele>38.59</ele>
        <time>2016-05-01T12:17:43Z</time>
      </trkpt>
      <trkpt lat="49.02228" lon="1.86892">
        <ele>35.71</ele>
        <time>2016-05-01T12:17:57Z</time>
      </trkpt>
      <trkpt lat="49.02228" lon="1.86892">
        <ele>35.71</ele>
        <time>2016-05-01T12:17:58Z</time>
      </trkpt>
      <trkpt lat="49.02236" lon="1.86911">
        <ele>34.74</ele>
        <time>2016-05-01T12:18:11Z</time>
      </trkpt>
      <trkpt lat="49.02247" lon="1.86943">
        <ele>33.3</ele>
        <time>2016-05-01T12:18:28Z</time>
      </trkpt>
      <trkpt lat="49.02255" lon="1.86962">
        <ele>31.38</ele>
        <time>2016-05-01T12:18:38Z</time>
      </trkpt>
      <trkpt lat="49.02267" lon="1.86993">
        <ele>28.5</ele>
        <time>2016-05-01T12:18:57Z</time>
      </trkpt>
      <trkpt lat="49.02281" lon="1.87032">
        <ele>24.17</ele>
        <time>2016-05-01T12:19:16Z</time>
      </trkpt>
      <trkpt lat="49.02284" lon="1.87037">
        <ele>24.17</ele>
        <time>2016-05-01T12:19:20Z</time>
      </trkpt>
      <trkpt lat="49.02295" lon="1.87073">
        <ele>21.77</ele>
        <time>2016-05-01T12:19:40Z</time>
      </trkpt>
      <trkpt lat="49.02309" lon="1.87105">
        <ele>24.65</ele>
        <time>2016-05-01T12:19:57Z</time>
      </trkpt>
      <trkpt lat="49.0232" lon="1.87129">
        <ele>26.57</ele>
        <time>2016-05-01T12:20:14Z</time>
      </trkpt>
      <trkpt lat="49.02321" lon="1.87132">
        <ele>27.05</ele>
        <time>2016-05-01T12:20:29Z</time>
      </trkpt>
      <trkpt lat="49.02324" lon="1.87141">
        <ele>25.61</ele>
        <time>2016-05-01T12:20:44Z</time>
      </trkpt>
      <trkpt lat="49.02329" lon="1.87153">
        <ele>25.13</ele>
        <time>2016-05-01T12:20:57Z</time>
      </trkpt>
      <trkpt lat="49.02337" lon="1.87174">
        <ele>21.29</ele>
        <time>2016-05-01T12:21:12Z</time>
      </trkpt>
      <trkpt lat="49.02346" lon="1.87198">
        <ele>21.77</ele>
        <time>2016-05-01T12:21:28Z</time>
      </trkpt>
      <trkpt lat="49.02354" lon="1.87219">
        <ele>23.21</ele>
        <time>2016-05-01T12:21:44Z</time>
      </trkpt>
      <trkpt lat="49.02363" lon="1.8724">
        <ele>20.32</ele>
        <time>2016-05-01T12:21:59Z</time>
      </trkpt>
      <trkpt lat="49.02371" lon="1.8726">
        <ele>19.84</ele>
        <time>2016-05-01T12:22:13Z</time>
      </trkpt>
      <trkpt lat="49.02383" lon="1.87285">
        <ele>20.81</ele>
        <time>2016-05-01T12:22:31Z</time>
      </trkpt>
      <trkpt lat="49.02394" lon="1.87294">
        <ele>20.32</ele>
        <time>2016-05-01T12:22:45Z</time>
      </trkpt>
      <trkpt lat="49.02405" lon="1.87308">
        <ele>17.92</ele>
        <time>2016-05-01T12:23:00Z</time>
      </trkpt>
      <trkpt lat="49.02415" lon="1.87323">
        <ele>17.92</ele>
        <time>2016-05-01T12:23:14Z</time>
      </trkpt>
      <trkpt lat="49.0242" lon="1.87332">
        <ele>19.84</ele>
        <time>2016-05-01T12:23:28Z</time>
      </trkpt>
      <trkpt lat="49.02422" lon="1.87328">
        <ele>22.25</ele>
        <time>2016-05-01T12:23:41Z</time>
      </trkpt>
      <trkpt lat="49.02421" lon="1.87329">
        <ele>23.69</ele>
        <time>2016-05-01T12:23:58Z</time>
      </trkpt>
      <trkpt lat="49.02421" lon="1.87329">
        <ele>24.17</ele>
        <time>2016-05-01T12:24:13Z</time>
      </trkpt>
      <trkpt lat="49.02422" lon="1.8733">
        <ele>24.65</ele>
        <time>2016-05-01T12:24:34Z</time>
      </trkpt>
      <trkpt lat="49.02422" lon="1.8733">
        <ele>25.61</ele>
        <time>2016-05-01T12:24:58Z</time>
      </trkpt>
      <trkpt lat="49.02421" lon="1.87332">
        <ele>27.05</ele>
        <time>2016-05-01T12:25:25Z</time>
      </trkpt>
      <trkpt lat="49.02421" lon="1.87332">
        <ele>26.57</ele>
        <time>2016-05-01T12:25:40Z</time>
      </trkpt>
      <trkpt lat="49.02421" lon="1.87331">
        <ele>25.13</ele>
        <time>2016-05-01T12:26:06Z</time>
      </trkpt>
      <trkpt lat="49.02421" lon="1.87332">
        <ele>23.69</ele>
        <time>2016-05-01T12:26:37Z</time>
      </trkpt>
      <trkpt lat="49.02421" lon="1.87332">
        <ele>23.69</ele>
        <time>2016-05-01T12:26:57Z</time>
      </trkpt>
      <trkpt lat="49.02422" lon="1.87329">
        <ele>24.17</ele>
        <time>2016-05-01T12:27:21Z</time>
      </trkpt>
      <trkpt lat="49.02422" lon="1.87331">
        <ele>24.17</ele>
        <time>2016-05-01T12:27:35Z</time>
      </trkpt>
      <trkpt lat="49.02422" lon="1.87332">
        <ele>23.69</ele>
        <time>2016-05-01T12:27:49Z</time>
      </trkpt>
      <trkpt lat="49.02423" lon="1.87331">
        <ele>23.21</ele>
        <time>2016-05-01T12:28:14Z</time>
      </trkpt>
      <trkpt lat="49.02423" lon="1.87331">
        <ele>23.21</ele>
        <time>2016-05-01T12:28:40Z</time>
      </trkpt>
      <trkpt lat="49.02422" lon="1.87331">
        <ele>22.73</ele>
        <time>2016-05-01T12:29:01Z</time>
      </trkpt>
      <trkpt lat="49.02422" lon="1.87331">
        <ele>23.21</ele>
        <time>2016-05-01T12:29:16Z</time>
      </trkpt>
      <trkpt lat="49.02421" lon="1.87332">
        <ele>23.69</ele>
        <time>2016-05-01T12:29:42Z</time>
      </trkpt>
      <trkpt lat="49.02421" lon="1.87332">
        <ele>24.17</ele>
        <time>2016-05-01T12:30:08Z</time>
      </trkpt>
      <trkpt lat="49.02421" lon="1.87333">
        <ele>24.17</ele>
        <time>2016-05-01T12:30:27Z</time>
      </trkpt>
      <trkpt lat="49.02422" lon="1.87334">
        <ele>24.17</ele>
        <time>2016-05-01T12:30:52Z</time>
      </trkpt>
      <trkpt lat="49.02423" lon="1.87333">
        <ele>24.65</ele>
        <time>2016-05-01T12:31:18Z</time>
      </trkpt>
      <trkpt lat="49.02422" lon="1.8733">
        <ele>24.17</ele>
        <time>2016-05-01T12:31:33Z</time>
      </trkpt>
      <trkpt lat="49.02421" lon="1.8733">
        <ele>24.17</ele>
        <time>2016-05-01T12:31:49Z</time>
      </trkpt>
      <trkpt lat="49.02421" lon="1.87331">
        <ele>24.17</ele>
        <time>2016-05-01T12:32:11Z</time>
      </trkpt>
      <trkpt lat="49.02423" lon="1.87328">
        <ele>24.65</ele>
        <time>2016-05-01T12:32:27Z</time>
      </trkpt>
      <trkpt lat="49.02424" lon="1.87327">
        <ele>24.65</ele>
        <time>2016-05-01T12:33:11Z</time>
      </trkpt>
      <trkpt lat="49.02424" lon="1.87328">
        <ele>25.61</ele>
        <time>2016-05-01T12:33:49Z</time>
      </trkpt>
      <trkpt lat="49.02423" lon="1.87328">
        <ele>26.57</ele>
        <time>2016-05-01T12:34:25Z</time>
      </trkpt>
      <trkpt lat="49.02424" lon="1.87328">
        <ele>27.53</ele>
        <time>2016-05-01T12:35:07Z</time>
      </trkpt>
      <trkpt lat="49.02424" lon="1.87328">
        <ele>27.53</ele>
        <time>2016-05-01T12:35:36Z</time>
      </trkpt>
      <trkpt lat="49.02424" lon="1.87329">
        <ele>26.57</ele>
        <time>2016-05-01T12:36:14Z</time>
      </trkpt>
      <trkpt lat="49.02425" lon="1.87328">
        <ele>26.57</ele>
        <time>2016-05-01T12:36:51Z</time>
      </trkpt>
      <trkpt lat="49.02423" lon="1.87329">
        <ele>26.57</ele>
        <time>2016-05-01T12:37:06Z</time>
      </trkpt>
      <trkpt lat="49.02424" lon="1.87329">
        <ele>26.57</ele>
        <time>2016-05-01T12:37:28Z</time>
      </trkpt>
      <trkpt lat="49.02423" lon="1.87329">
        <ele>27.05</ele>
        <time>2016-05-01T12:37:48Z</time>
      </trkpt>
      <trkpt lat="49.02423" lon="1.87328">
        <ele>26.57</ele>
        <time>2016-05-01T12:38:13Z</time>
      </trkpt>
      <trkpt lat="49.02423" lon="1.87329">
        <ele>26.09</ele>
        <time>2016-05-01T12:38:40Z</time>
      </trkpt>
      <trkpt lat="49.02423" lon="1.8733">
        <ele>26.57</ele>
        <time>2016-05-01T12:39:04Z</time>
      </trkpt>
      <trkpt lat="49.02424" lon="1.87331">
        <ele>26.57</ele>
        <time>2016-05-01T12:39:29Z</time>
      </trkpt>
      <trkpt lat="49.02423" lon="1.87331">
        <ele>26.09</ele>
        <time>2016-05-01T12:39:52Z</time>
      </trkpt>
      <trkpt lat="49.02423" lon="1.87332">
        <ele>26.09</ele>
        <time>2016-05-01T12:40:18Z</time>
      </trkpt>
      <trkpt lat="49.02423" lon="1.87332">
        <ele>26.09</ele>
        <time>2016-05-01T12:40:22Z</time>
      </trkpt>
      <trkpt lat="49.02426" lon="1.8733">
        <ele>25.13</ele>
        <time>2016-05-01T12:40:35Z</time>
      </trkpt>
      <trkpt lat="49.02426" lon="1.8733">
        <ele>24.17</ele>
        <time>2016-05-01T12:40:56Z</time>
      </trkpt>
      <trkpt lat="49.02425" lon="1.87329">
        <ele>24.65</ele>
        <time>2016-05-01T12:41:09Z</time>
      </trkpt>
      <trkpt lat="49.02426" lon="1.87329">
        <ele>24.17</ele>
        <time>2016-05-01T12:41:20Z</time>
      </trkpt>
      <trkpt lat="49.02429" lon="1.87347">
        <ele>24.17</ele>
        <time>2016-05-01T12:41:30Z</time>
      </trkpt>
      <trkpt lat="49.02431" lon="1.87354">
        <ele>24.65</ele>
        <time>2016-05-01T12:41:42Z</time>
      </trkpt>
      <trkpt lat="49.02423" lon="1.87381">
        <ele>23.69</ele>
        <time>2016-05-01T12:42:00Z</time>
      </trkpt>
      <trkpt lat="49.02412" lon="1.87405">
        <ele>24.17</ele>
        <time>2016-05-01T12:42:18Z</time>
      </trkpt>
      <trkpt lat="49.0241" lon="1.87413">
        <ele>24.65</ele>
        <time>2016-05-01T12:42:24Z</time>
      </trkpt>
      <trkpt lat="49.02411" lon="1.87425">
        <ele>23.69</ele>
        <time>2016-05-01T12:42:31Z</time>
      </trkpt>
      <trkpt lat="49.02422" lon="1.87442">
        <ele>19.84</ele>
        <time>2016-05-01T12:42:46Z</time>
      </trkpt>
      <trkpt lat="49.02432" lon="1.87455">
        <ele>17.44</ele>
        <time>2016-05-01T12:43:00Z</time>
      </trkpt>
      <trkpt lat="49.02446" lon="1.87473">
        <ele>19.84</ele>
        <time>2016-05-01T12:43:16Z</time>
      </trkpt>
      <trkpt lat="49.02448" lon="1.87475">
        <ele>19.84</ele>
        <time>2016-05-01T12:43:18Z</time>
      </trkpt>
      <trkpt lat="49.02451" lon="1.87479">
        <ele>19.36</ele>
        <time>2016-05-01T12:43:22Z</time>
      </trkpt>
      <trkpt lat="49.02455" lon="1.87481">
        <ele>19.84</ele>
        <time>2016-05-01T12:43:25Z</time>
      </trkpt>
      <trkpt lat="49.02464" lon="1.87489">
        <ele>20.32</ele>
        <time>2016-05-01T12:43:34Z</time>
      </trkpt>
      <trkpt lat="49.02467" lon="1.8749">
        <ele>20.32</ele>
        <time>2016-05-01T12:43:37Z</time>
      </trkpt>
      <trkpt lat="49.02483" lon="1.87498">
        <ele>20.32</ele>
        <time>2016-05-01T12:43:52Z</time>
      </trkpt>
      <trkpt lat="49.02497" lon="1.87502">
        <ele>19.84</ele>
        <time>2016-05-01T12:44:06Z</time>
      </trkpt>
      <trkpt lat="49.02516" lon="1.87506">
        <ele>19.36</ele>
        <time>2016-05-01T12:44:20Z</time>
      </trkpt>
      <trkpt lat="49.02536" lon="1.87509">
        <ele>20.81</ele>
        <time>2016-05-01T12:44:37Z</time>
      </trkpt>
      <trkpt lat="49.02546" lon="1.87509">
        <ele>20.81</ele>
        <time>2016-05-01T12:44:47Z</time>
      </trkpt>
      <trkpt lat="49.02565" lon="1.87511">
        <ele>20.81</ele>
        <time>2016-05-01T12:45:04Z</time>
      </trkpt>
      <trkpt lat="49.02568" lon="1.87512">
        <ele>20.32</ele>
        <time>2016-05-01T12:45:06Z</time>
      </trkpt>
      <trkpt lat="49.02571" lon="1.87517">
        <ele>19.84</ele>
        <time>2016-05-01T12:45:11Z</time>
      </trkpt>
      <trkpt lat="49.02574" lon="1.87532">
        <ele>19.36</ele>
        <time>2016-05-01T12:45:19Z</time>
      </trkpt>
      <trkpt lat="49.02572" lon="1.87549">
        <ele>21.29</ele>
        <time>2016-05-01T12:45:33Z</time>
      </trkpt>
      <trkpt lat="49.02572" lon="1.87553">
        <ele>22.25</ele>
        <time>2016-05-01T12:45:46Z</time>
      </trkpt>
      <trkpt lat="49.0257" lon="1.87554">
        <ele>22.25</ele>
        <time>2016-05-01T12:46:25Z</time>
      </trkpt>
      <trkpt lat="49.02569" lon="1.87553">
        <ele>22.25</ele>
        <time>2016-05-01T12:46:39Z</time>
      </trkpt>
      <trkpt lat="49.02571" lon="1.87555">
        <ele>22.73</ele>
        <time>2016-05-01T12:46:59Z</time>
      </trkpt>
      <trkpt lat="49.02572" lon="1.87555">
        <ele>22.25</ele>
        <time>2016-05-01T12:47:21Z</time>
      </trkpt>
      <trkpt lat="49.02573" lon="1.87558">
        <ele>22.25</ele>
        <time>2016-05-01T12:47:47Z</time>
      </trkpt>
      <trkpt lat="49.02572" lon="1.87558">
        <ele>22.73</ele>
        <time>2016-05-01T12:48:06Z</time>
      </trkpt>
      <trkpt lat="49.02572" lon="1.87555">
        <ele>22.73</ele>
        <time>2016-05-01T12:48:38Z</time>
      </trkpt>
      <trkpt lat="49.02572" lon="1.87553">
        <ele>22.25</ele>
        <time>2016-05-01T12:49:02Z</time>
      </trkpt>
      <trkpt lat="49.02574" lon="1.87552">
        <ele>22.25</ele>
        <time>2016-05-01T12:49:29Z</time>
      </trkpt>
      <trkpt lat="49.02575" lon="1.87549">
        <ele>22.25</ele>
        <time>2016-05-01T12:50:03Z</time>
      </trkpt>
      <trkpt lat="49.02577" lon="1.87534">
        <ele>21.77</ele>
        <time>2016-05-01T12:50:17Z</time>
      </trkpt>
      <trkpt lat="49.02577" lon="1.87527">
        <ele>22.25</ele>
        <time>2016-05-01T12:50:20Z</time>
      </trkpt>
      <trkpt lat="49.02571" lon="1.87509">
        <ele>24.17</ele>
        <time>2016-05-01T12:50:34Z</time>
      </trkpt>
      <trkpt lat="49.0257" lon="1.87508">
        <ele>24.17</ele>
        <time>2016-05-01T12:50:35Z</time>
      </trkpt>
      <trkpt lat="49.02552" lon="1.875">
        <ele>23.21</ele>
        <time>2016-05-01T12:50:53Z</time>
      </trkpt>
      <trkpt lat="49.02533" lon="1.87495">
        <ele>23.21</ele>
        <time>2016-05-01T12:51:10Z</time>
      </trkpt>
      <trkpt lat="49.02518" lon="1.87495">
        <ele>24.17</ele>
        <time>2016-05-01T12:51:25Z</time>
      </trkpt>
      <trkpt lat="49.02502" lon="1.87492">
        <ele>22.25</ele>
        <time>2016-05-01T12:51:40Z</time>
      </trkpt>
      <trkpt lat="49.0248" lon="1.87486">
        <ele>18.4</ele>
        <time>2016-05-01T12:51:59Z</time>
      </trkpt>
      <trkpt lat="49.02465" lon="1.87474">
        <ele>18.4</ele>
        <time>2016-05-01T12:52:15Z</time>
      </trkpt>
      <trkpt lat="49.0245" lon="1.87461">
        <ele>20.32</ele>
        <time>2016-05-01T12:52:30Z</time>
      </trkpt>
      <trkpt lat="49.02437" lon="1.87446">
        <ele>19.84</ele>
        <time>2016-05-01T12:52:45Z</time>
      </trkpt>
      <trkpt lat="49.02422" lon="1.8743">
        <ele>20.32</ele>
        <time>2016-05-01T12:53:03Z</time>
      </trkpt>
      <trkpt lat="49.02413" lon="1.87416">
        <ele>21.77</ele>
        <time>2016-05-01T12:53:16Z</time>
      </trkpt>
      <trkpt lat="49.02417" lon="1.87409">
        <ele>22.73</ele>
        <time>2016-05-01T12:53:21Z</time>
      </trkpt>
      <trkpt lat="49.02429" lon="1.87383">
        <ele>22.25</ele>
        <time>2016-05-01T12:53:40Z</time>
      </trkpt>
      <trkpt lat="49.02431" lon="1.8737">
        <ele>21.77</ele>
        <time>2016-05-01T12:53:50Z</time>
      </trkpt>
      <trkpt lat="49.02431" lon="1.87347">
        <ele>23.69</ele>
        <time>2016-05-01T12:54:03Z</time>
      </trkpt>
      <trkpt lat="49.02426" lon="1.87329">
        <ele>22.73</ele>
        <time>2016-05-01T12:54:20Z</time>
      </trkpt>
      <trkpt lat="49.02426" lon="1.8733">
        <ele>23.69</ele>
        <time>2016-05-01T12:54:44Z</time>
      </trkpt>
      <trkpt lat="49.02426" lon="1.8733">
        <ele>22.73</ele>
        <time>2016-05-01T12:55:11Z</time>
      </trkpt>
      <trkpt lat="49.02423" lon="1.87329">
        <ele>22.25</ele>
        <time>2016-05-01T12:55:39Z</time>
      </trkpt>
      <trkpt lat="49.02423" lon="1.87327">
        <ele>22.25</ele>
        <time>2016-05-01T12:55:40Z</time>
      </trkpt>
      <trkpt lat="49.0242" lon="1.87309">
        <ele>23.21</ele>
        <time>2016-05-01T12:55:53Z</time>
      </trkpt>
      <trkpt lat="49.02418" lon="1.87312">
        <ele>25.61</ele>
        <time>2016-05-01T12:56:13Z</time>
      </trkpt>
      <trkpt lat="49.02419" lon="1.87321">
        <ele>25.13</ele>
        <time>2016-05-01T12:56:18Z</time>
      </trkpt>
      <trkpt lat="49.02424" lon="1.87329">
        <ele>23.69</ele>
        <time>2016-05-01T12:56:34Z</time>
      </trkpt>
      <trkpt lat="49.02423" lon="1.87329">
        <ele>22.25</ele>
        <time>2016-05-01T12:57:04Z</time>
      </trkpt>
      <trkpt lat="49.02424" lon="1.87329">
        <ele>22.25</ele>
        <time>2016-05-01T12:57:43Z</time>
      </trkpt>
      <trkpt lat="49.02423" lon="1.8733">
        <ele>22.73</ele>
        <time>2016-05-01T12:58:00Z</time>
      </trkpt>
      <trkpt lat="49.02423" lon="1.87329">
        <ele>21.29</ele>
        <time>2016-05-01T12:58:26Z</time>
      </trkpt>
      <trkpt lat="49.02423" lon="1.87329">
        <ele>19.84</ele>
        <time>2016-05-01T12:58:52Z</time>
      </trkpt>
      <trkpt lat="49.02422" lon="1.8733">
        <ele>18.4</ele>
        <time>2016-05-01T12:59:06Z</time>
      </trkpt>
      <trkpt lat="49.02422" lon="1.8733">
        <ele>17.92</ele>
        <time>2016-05-01T12:59:26Z</time>
      </trkpt>
      <trkpt lat="49.02421" lon="1.8733">
        <ele>17.44</ele>
        <time>2016-05-01T12:59:44Z</time>
      </trkpt>
      <trkpt lat="49.02421" lon="1.8733">
        <ele>17.92</ele>
        <time>2016-05-01T12:59:57Z</time>
      </trkpt>
      <trkpt lat="49.0242" lon="1.87331">
        <ele>17.44</ele>
        <time>2016-05-01T13:00:32Z</time>
      </trkpt>
      <trkpt lat="49.02419" lon="1.87332">
        <ele>17.92</ele>
        <time>2016-05-01T13:01:07Z</time>
      </trkpt>
      <trkpt lat="49.02419" lon="1.87333">
        <ele>18.88</ele>
        <time>2016-05-01T13:01:27Z</time>
      </trkpt>
      <trkpt lat="49.02419" lon="1.87334">
        <ele>18.88</ele>
        <time>2016-05-01T13:01:40Z</time>
      </trkpt>
      <trkpt lat="49.02419" lon="1.87332">
        <ele>19.36</ele>
        <time>2016-05-01T13:01:55Z</time>
      </trkpt>
      <trkpt lat="49.0242" lon="1.8733">
        <ele>19.84</ele>
        <time>2016-05-01T13:02:05Z</time>
      </trkpt>
    </trkseg>
  </trk>
</gpx>